Another Hard Day at the Office Weather Stats

 
 
 

High monthly outside Temperature, 22.8 , C
Low monthly outside Temperature, -1.0 , C
High yearly outside Temperature, 30.9 , C
Low yearly outside Temperature, -2.2 , C

Low monthly barometer, 1001.1 , mb
High monthly barometer, 1028.0 , mb
Low yearly barometer, 975.0 , mb
High yearly barometer 1041.1 , mb

High wind speed, 25.0 , mph
Time of High wind speed, 21:37 , mph
High monthly wind speed, 47.0 , mph
High yearly wind speed, 55.0 , mph

 

 




3126
                    Temp     Hi    Low   Out    Dew  Wind  Wind   Wind    Hi    Hi   Wind   Heat    THW                Rain    Heat    Cool    In     In    In     In     In   In Air  Wind  Wind    ISS   Arc.
  Date    Time     Out   Temp   Temp   Hum    Pt. Speed   Dir    Run Speed   Dir  Chill  Index  Index   Bar    Rain  Rate    D-D     D-D    Temp   Hum    Dew   Heat    EMC Density  Samp   Tx   Recept  Int.
---------------------------------------------------------------------------------------------------------------------------------------------------------------------------------------------------------------
21/05/19   0:05   12.7   12.8   12.7    80    9.4   0.0   ---   0.00   0.0   ---   12.7   12.6   12.6  1014.5  0.00  0.00   0.019   0.000   22.6    49   11.4   22.2   9.05  .0737    115    1    100.0    5 
21/05/19   0:10   12.7   12.7   12.7    80    9.4   2.0    NW   0.17   5.0    NW   12.7   12.6   12.6  1014.5  0.00  0.00   0.019   0.000   22.6    48   11.0   22.2   8.90  .0737    116    1    100.0    5 
21/05/19   0:15   12.7   12.7   12.7    80    9.3   3.0    NW   0.25   6.0    NW   12.7   12.5   12.5  1014.5  0.00  0.00   0.020   0.000   22.6    48   11.0   22.2   8.90  .0737    115    1    100.0    5 
21/05/19   0:20   12.7   12.7   12.7    81    9.5   3.0    NW   0.25   6.0    NW   12.7   12.6   12.6  1014.5  0.00  0.00   0.019   0.000   22.7    48   11.1   22.3   8.91  .0737    115    1    100.0    5 
21/05/19   0:25   12.7   12.7   12.7    81    9.5   3.0    NW   0.25   8.0    NW   12.7   12.6   12.6  1014.5  0.00  0.00   0.019   0.000   22.6    48   11.0   22.2   8.90  .0737    116    1    100.0    5 
21/05/19   0:30   12.7   12.8   12.7    80    9.4   4.0   NNW   0.33   8.0   NNW   12.5   12.6   12.3  1014.6  0.00  0.00   0.019   0.000   22.7    48   11.1   22.3   8.91  .0737    117    1    100.0    5 
21/05/19   0:35   12.8   12.8   12.8    81    9.6   4.0   NNW   0.33   9.0   NNW   12.6   12.6   12.4  1014.6  0.00  0.00   0.019   0.000   22.6    48   11.0   22.2   8.90  .0737    117    1    100.0    5 
21/05/19   0:40   12.8   12.8   12.8    80    9.4   3.0   NNW   0.25   8.0   NNW   12.8   12.6   12.6  1014.6  0.00  0.00   0.019   0.000   22.6    48   11.0   22.2   8.90  .0737    117    1    100.0    5 
21/05/19   0:45   12.8   12.8   12.8    80    9.4   4.0   NNW   0.33   9.0   NNW   12.6   12.6   12.4  1014.5  0.00  0.00   0.019   0.000   22.6    48   11.0   22.2   8.90  .0737    115    1    100.0    5 
21/05/19   0:50   12.7   12.8   12.7    80    9.4   3.0   NNW   0.25   7.0   NNW   12.7   12.6   12.6  1014.6  0.00  0.00   0.019   0.000   22.6    48   11.0   22.2   8.90  .0737    116    1    100.0    5 
21/05/19   0:55   12.7   12.7   12.7    80    9.3   2.0   NNW   0.17   7.0   NNW   12.7   12.5   12.5  1014.6  0.00  0.00   0.020   0.000   22.6    48   11.0   22.2   8.90  .0737    117    1    100.0    5 
21/05/19   1:00   12.6   12.7   12.6    80    9.2   3.0   NNW   0.25   7.0   NNW   12.6   12.4   12.4  1014.6  0.00  0.00   0.020   0.000   22.6    48   11.0   22.2   8.90  .0737    116    1    100.0    5 
21/05/19   1:05   12.6   12.6   12.6    80    9.2   3.0   NNW   0.25   7.0   NNW   12.6   12.4   12.4  1014.7  0.00  0.00   0.020   0.000   22.6    48   11.0   22.2   8.90  .0737    117    1    100.0    5 
21/05/19   1:10   12.5   12.6   12.5    80    9.1   3.0   NNW   0.25   7.0   NNW   12.5   12.3   12.3  1014.7  0.00  0.00   0.020   0.000   22.6    48   11.0   22.2   8.90  .0737    117    1    100.0    5 
21/05/19   1:15   12.4   12.5   12.4    79    8.9   4.0   NNW   0.33   8.0   NNW   12.2   12.3   12.0  1014.8  0.00  0.00   0.020   0.000   22.6    48   11.0   22.2   8.90  .0737    116    1    100.0    5 
21/05/19   1:20   12.4   12.4   12.4    79    8.9   3.0   NNW   0.25   7.0   NNW   12.4   12.3   12.3  1014.7  0.00  0.00   0.020   0.000   22.6    48   11.0   22.2   8.90  .0737    117    1    100.0    5 
21/05/19   1:25   12.4   12.4   12.4    79    8.8   3.0   NNW   0.25   7.0   NNW   12.4   12.2   12.2  1014.8  0.00  0.00   0.021   0.000   22.6    48   11.0   22.2   8.90  .0737    117    1    100.0    5 
21/05/19   1:30   12.3   12.4   12.3    79    8.8   3.0   NNW   0.25   8.0   NNW   12.3   12.2   12.2  1014.8  0.00  0.00   0.021   0.000   22.6    47   10.7   22.1   8.75  .0737    117    1    100.0    5 
21/05/19   1:35   12.3   12.3   12.3    79    8.7   3.0   NNW   0.25   6.0   NNW   12.3   12.1   12.1  1014.7  0.00  0.00   0.021   0.000   22.6    47   10.7   22.1   8.75  .0737    117    1    100.0    5 
21/05/19   1:40   12.3   12.3   12.3    79    8.7   3.0   NNW   0.25   6.0   NNW   12.3   12.1   12.1  1014.8  0.00  0.00   0.021   0.000   22.6    47   10.7   22.1   8.75  .0737    117    1    100.0    5 
21/05/19   1:45   12.3   12.3   12.2    79    8.7   4.0     N   0.33   9.0     N   12.0   12.1   11.8  1014.7  0.00  0.00   0.021   0.000   22.6    47   10.7   22.1   8.75  .0737    116    1    100.0    5 
21/05/19   1:50   12.2   12.3   12.2    79    8.7   3.0     N   0.25  11.0     N   12.2   12.1   12.1  1014.8  0.00  0.00   0.021   0.000   22.6    47   10.7   22.1   8.75  .0737    117    1    100.0    5 
21/05/19   1:55   12.2   12.3   12.2    79    8.7   4.0     N   0.33  10.0     N   11.9   12.1   11.8  1014.9  0.00  0.00   0.021   0.000   22.6    47   10.7   22.1   8.75  .0737    117    1    100.0    5 
21/05/19   2:00   12.2   12.2   12.2    78    8.5   4.0     N   0.33  11.0     N   11.9   12.0   11.7  1014.9  0.00  0.00   0.021   0.000   22.6    47   10.7   22.1   8.75  .0737    117    1    100.0    5 
21/05/19   2:05   12.2   12.2   12.2    78    8.4   2.0     N   0.17   7.0     N   12.2   11.9   11.9  1014.9  0.00  0.00   0.021   0.000   22.6    47   10.7   22.1   8.75  .0737    116    1    100.0    5 
21/05/19   2:10   12.1   12.2   12.1    78    8.4   3.0     N   0.25   8.0     N   12.1   11.9   11.9  1014.9  0.00  0.00   0.022   0.000   22.6    47   10.7   22.1   8.75  .0737    117    1    100.0    5 
21/05/19   2:15   12.1   12.1   12.1    79    8.5   3.0     N   0.25   9.0   NNW   12.1   11.9   11.9  1014.9  0.00  0.00   0.022   0.000   22.6    47   10.7   22.1   8.75  .0737    117    1    100.0    5 
21/05/19   2:20   12.1   12.1   12.1    79    8.5   4.0     N   0.33   9.0     N   11.7   11.9   11.6  1014.9  0.00  0.00   0.022   0.000   22.6    46   10.3   22.0   8.60  .0738    117    1    100.0    5 
21/05/19   2:25   12.0   12.1   12.0    79    8.5   4.0     N   0.33   9.0     N   11.7   11.8   11.5  1014.9  0.00  0.00   0.022   0.000   22.6    46   10.3   22.0   8.60  .0738    117    1    100.0    5 
21/05/19   2:30   11.9   12.0   11.9    78    8.2   4.0     N   0.33   7.0     N   11.6   11.7   11.4  1015.0  0.00  0.00   0.022   0.000   22.6    46   10.3   22.0   8.60  .0738    117    1    100.0    5 
21/05/19   2:35   11.9   11.9   11.9    78    8.2   4.0     N   0.33   9.0     N   11.6   11.7   11.3  1015.0  0.00  0.00   0.022   0.000   22.6    46   10.3   22.0   8.60  .0738    116    1    100.0    5 
21/05/19   2:40   11.8   11.9   11.8    78    8.1   3.0     N   0.25   8.0     N   11.8   11.6   11.6  1015.0  0.00  0.00   0.023   0.000   22.6    46   10.3   22.0   8.60  .0738    116    1    100.0    5 
21/05/19   2:45   11.8   11.9   11.8    79    8.3   3.0     N   0.25   8.0     N   11.8   11.7   11.7  1015.1  0.00  0.00   0.023   0.000   22.6    46   10.3   22.0   8.60  .0738    116    1    100.0    5 
21/05/19   2:50   11.8   11.8   11.8    79    8.3   4.0     N   0.33   9.0     N   11.4   11.6   11.2  1015.1  0.00  0.00   0.023   0.000   22.6    46   10.3   22.0   8.60  .0738    117    1    100.0    5 
21/05/19   2:55   11.7   11.8   11.7    79    8.2   5.0     N   0.42  12.0     N   11.0   11.6   10.8  1015.2  0.00  0.00   0.023   0.000   22.6    46   10.3   22.0   8.60  .0738    117    1    100.0    5 
21/05/19   3:00   11.7   11.8   11.7    79    8.2   5.0     N   0.42  12.0   NNW   11.0   11.6   10.8  1015.2  0.00  0.00   0.023   0.000   22.6    46   10.3   22.0   8.60  .0738    117    1    100.0    5 
21/05/19   3:05   11.7   11.7   11.7    79    8.1   5.0     N   0.42   9.0     N   10.9   11.5   10.8  1015.2  0.00  0.00   0.023   0.000   22.6    46   10.3   22.0   8.60  .0738    118    1    100.0    5 
21/05/19   3:10   11.7   11.7   11.7    79    8.1   4.0     N   0.33   9.0     N   11.3   11.5   11.1  1015.2  0.00  0.00   0.023   0.000   22.6    46   10.3   22.0   8.60  .0738    116    1    100.0    5 
21/05/19   3:15   11.7   11.7   11.7    79    8.1   4.0     N   0.33  11.0     N   11.3   11.5   11.1  1015.2  0.00  0.00   0.023   0.000   22.6    46   10.3   22.0   8.60  .0738    117    1    100.0    5 
21/05/19   3:20   11.6   11.7   11.6    79    8.1   3.0     N   0.25   7.0     N   11.6   11.4   11.4  1015.2  0.00  0.00   0.023   0.000   22.6    46   10.3   22.0   8.60  .0738    117    1    100.0    5 
21/05/19   3:25   11.6   11.6   11.6    79    8.0   2.0     N   0.17   9.0     N   11.6   11.4   11.4  1015.2  0.00  0.00   0.024   0.000   22.6    46   10.3   22.0   8.60  .0738    115    1    100.0    5 
21/05/19   3:30   11.4   11.5   11.4    79    7.9   3.0     N   0.25   8.0     N   11.4   11.3   11.3  1015.2  0.00  0.00   0.024   0.000   22.5    46   10.3   21.9   8.60  .0738    117    1    100.0    5 
21/05/19   3:35   11.4   11.5   11.4    79    7.9   2.0     N   0.17   7.0     N   11.4   11.3   11.3  1015.2  0.00  0.00   0.024   0.000   22.6    46   10.3   22.0   8.60  .0738    117    1    100.0    5 
21/05/19   3:40   11.4   11.4   11.4    79    7.9   3.0     N   0.25  10.0     N   11.4   11.2   11.2  1015.2  0.00  0.00   0.024   0.000   22.5    46   10.3   21.9   8.60  .0738    117    1    100.0    5 
21/05/19   3:45   11.3   11.4   11.3    79    7.8   3.0     N   0.25   9.0     N   11.3   11.2   11.1  1015.3  0.00  0.00   0.024   0.000   22.5    45   10.0   21.8   8.45  .0738    117    1    100.0    5 
21/05/19   3:50   11.3   11.3   11.3    79    7.8   3.0     N   0.25   7.0     N   11.3   11.2   11.1  1015.3  0.00  0.00   0.024   0.000   22.5    45   10.0   21.8   8.45  .0738    116    1    100.0    5 
21/05/19   3:55   11.3   11.3   11.3    79    7.8   3.0     N   0.25   9.0     N   11.3   11.2   11.1  1015.3  0.00  0.00   0.024   0.000   22.5    45   10.0   21.8   8.45  .0738    117    1    100.0    5 
21/05/19   4:00   11.3   11.3   11.3    79    7.8   4.0     N   0.33  10.0     N   10.8   11.1   10.7  1015.2  0.00  0.00   0.024   0.000   22.5    45   10.0   21.8   8.45  .0738    117    1    100.0    5 
21/05/19   4:05   11.3   11.3   11.3    79    7.8   4.0     N   0.33   9.0     N   10.8   11.1   10.7  1015.3  0.00  0.00   0.024   0.000   22.5    45   10.0   21.8   8.45  .0738    116    1    100.0    5 
21/05/19   4:10   11.3   11.3   11.3    79    7.8   6.0     N   0.50  11.0     N   10.2   11.1   10.1  1015.4  0.00  0.00   0.024   0.000   22.4    45    9.9   21.8   8.45  .0738    117    1    100.0    5 
21/05/19   4:15   11.3   11.3   11.3    79    7.8   6.0     N   0.50  11.0     N   10.2   11.1   10.1  1015.4  0.00  0.00   0.024   0.000   22.4    45    9.9   21.8   8.45  .0739    117    1    100.0    5 
21/05/19   4:20   11.3   11.3   11.2    79    7.8   6.0     N   0.50  13.0     N   10.2   11.1   10.1  1015.4  0.00  0.00   0.024   0.000   22.4    45    9.9   21.8   8.45  .0739    117    1    100.0    5 
21/05/19   4:25   11.2   11.3   11.2    79    7.7   4.0     N   0.33  12.0     N   10.8   11.1   10.6  1015.4  0.00  0.00   0.025   0.000   22.4    45    9.9   21.8   8.45  .0739    117    1    100.0    5 
21/05/19   4:30   11.3   11.3   11.2    79    7.8   5.0     N   0.42  14.0   NNE   10.5   11.1   10.3  1015.6  0.00  0.00   0.024   0.000   22.5    45   10.0   21.8   8.45  .0738    117    1    100.0    5 
21/05/19   4:35   11.3   11.3   11.3    79    7.8   5.0     N   0.42  12.0     N   10.5   11.1   10.3  1015.5  0.00  0.00   0.024   0.000   22.5    45   10.0   21.8   8.45  .0738    117    1    100.0    5 
21/05/19   4:40   11.3   11.3   11.3    79    7.8   3.0     N   0.25   9.0     N   11.2   11.1   11.1  1015.6  0.00  0.00   0.024   0.000   22.4    45    9.9   21.8   8.45  .0739    117    1    100.0    5 
21/05/19   4:45   11.3   11.3   11.3    79    7.8   5.0     N   0.42  13.0     N   10.6   11.2   10.4  1015.6  0.00  0.00   0.024   0.000   22.4    45    9.9   21.8   8.45  .0739    117    1    100.0    5 
21/05/19   4:50   11.3   11.3   11.3    79    7.8   4.0     N   0.33  10.0     N   10.9   11.2   10.7  1015.6  0.00  0.00   0.024   0.000   22.5    45   10.0   21.8   8.45  .0738    117    1    100.0    5 
21/05/19   4:55   11.4   11.4   11.3    79    7.9   5.0     N   0.42  11.0     N   10.7   11.2   10.5  1015.6  0.00  0.00   0.024   0.000   22.4    45    9.9   21.8   8.45  .0739    116    1    100.0    5 
21/05/19   5:00   11.4   11.4   11.4    79    7.9   6.0     N   0.50  11.0     N   10.4   11.3   10.2  1015.7  0.00  0.00   0.024   0.000   22.5    45   10.0   21.8   8.45  .0739    117    1    100.0    5 
21/05/19   5:05   11.5   11.5   11.4    79    8.0   5.0     N   0.42  11.0     N   10.8   11.3   10.6  1015.8  0.00  0.00   0.024   0.000   22.5    45   10.0   21.8   8.45  .0739    117    1    100.0    5 
21/05/19   5:10   11.6   11.6   11.5    79    8.0   4.0     N   0.33  10.0     N   11.2   11.4   11.0  1015.8  0.00  0.00   0.024   0.000   22.4    45    9.9   21.8   8.45  .0739    117    1    100.0    5 
21/05/19   5:15   11.7   11.7   11.6    78    8.0   5.0     N   0.42  10.0     N   10.9   11.4   10.7  1015.8  0.00  0.00   0.023   0.000   22.4    45    9.9   21.8   8.45  .0739    118    1    100.0    5 
21/05/19   5:20   11.7   11.7   11.7    78    8.0   3.0     N   0.25   9.0   NNE   11.7   11.5   11.5  1015.9  0.00  0.00   0.023   0.000   22.4    45    9.9   21.8   8.45  .0739    116    1    100.0    5 
21/05/19   5:25   11.8   11.8   11.7    78    8.1   4.0     N   0.33   8.0     N   11.4   11.6   11.2  1015.9  0.00  0.00   0.023   0.000   22.5    45   10.0   21.8   8.45  .0739    117    1    100.0    5 
21/05/19   5:30   11.8   11.8   11.8    78    8.1   3.0     N   0.25  10.0     N   11.8   11.6   11.6  1016.0  0.00  0.00   0.023   0.000   22.5    45   10.0   21.8   8.45  .0739    117    1    100.0    5 
21/05/19   5:35   11.9   11.9   11.8    78    8.2   3.0     N   0.25   9.0     N   11.9   11.7   11.7  1016.0  0.00  0.00   0.022   0.000   22.5    45   10.0   21.8   8.45  .0739    117    1    100.0    5 
21/05/19   5:40   12.0   12.0   11.9    78    8.3   6.0     N   0.50  12.0     N   11.1   11.8   10.8  1016.0  0.00  0.00   0.022   0.000   22.5    44    9.6   21.8   8.30  .0739    117    1    100.0    5 
21/05/19   5:45   12.1   12.1   12.0    77    8.1   5.0     N   0.42  10.0     N   11.4   11.8   11.2  1016.1  0.00  0.00   0.022   0.000   22.5    44    9.6   21.8   8.30  .0739    117    1    100.0    5 
21/05/19   5:50   12.1   12.1   12.1    77    8.2   7.0     N   0.58  12.0     N   11.0   11.9   10.8  1016.1  0.00  0.00   0.022   0.000   22.5    44    9.6   21.8   8.30  .0739    114    1    100.0    5 
21/05/19   5:55   12.2   12.2   12.1    77    8.3   7.0     N   0.58  13.0     N   11.1   12.0   10.9  1016.2  0.00  0.00   0.021   0.000   22.6    44    9.7   21.9   8.30  .0739    114    1    100.0    5 
21/05/19   6:00   12.3   12.3   12.2    77    8.4   6.0     N   0.50  13.0   NNW   11.4   12.1   11.2  1016.3  0.00  0.00   0.021   0.000   22.6    44    9.7   21.9   8.30  .0739    115    1    100.0    5 
21/05/19   6:05   12.4   12.4   12.3    77    8.5   7.0     N   0.58  13.0   NNE   11.4   12.2   11.2  1016.3  0.00  0.00   0.020   0.000   22.6    44    9.7   22.0   8.30  .0739    117    1    100.0    5 
21/05/19   6:10   12.6   12.6   12.4    76    8.4   6.0     N   0.50  13.0   NNE   11.7   12.3   11.4  1016.3  0.00  0.00   0.020   0.000   22.6    44    9.7   22.0   8.30  .0739    117    1    100.0    5 
21/05/19   6:15   12.6   12.6   12.6    76    8.5   4.0     N   0.33  12.0     N   12.4   12.3   12.1  1016.4  0.00  0.00   0.020   0.000   22.7    44    9.8   22.1   8.29  .0739    117    1    100.0    5 
21/05/19   6:20   12.7   12.7   12.6    76    8.5   8.0     N   0.67  16.0   NNE   11.3   12.4   11.0  1016.4  0.00  0.00   0.020   0.000   22.7    44    9.8   22.2   8.29  .0739    116    1    100.0    5 
21/05/19   6:25   12.7   12.7   12.7    76    8.5   6.0     N   0.50  11.0     N   11.9   12.4   11.6  1016.4  0.00  0.00   0.020   0.000   22.8    44    9.9   22.2   8.29  .0738    117    1    100.0    5 
21/05/19   6:30   12.8   12.8   12.7    76    8.7   6.0     N   0.50  12.0     N   12.0   12.5   11.7  1016.4  0.00  0.00   0.019   0.000   22.8    44    9.9   22.3   8.29  .0738    117    1    100.0    5 
21/05/19   6:35   12.9   12.9   12.8    76    8.8   9.0     N   0.75  15.0     N   11.1   12.6   10.8  1016.5  0.00  0.00   0.019   0.000   22.9    44   10.0   22.4   8.29  .0738    117    1    100.0    5 
21/05/19   6:40   13.0   13.0   12.9    75    8.7   9.0   NNE   0.75  15.0   NNE   11.3   12.7   11.0  1016.5  0.00  0.00   0.019   0.000   22.9    44   10.0   22.4   8.28  .0738    115    1    100.0    5 
21/05/19   6:45   13.2   13.2   13.1    75    8.8  10.0     N   0.83  16.0     N   11.1   12.8   10.7  1016.6  0.00  0.00   0.018   0.000   23.0    44   10.1   22.5   8.28  .0738    117    1    100.0    5 
21/05/19   6:50   13.4   13.4   13.2    75    9.0   8.0     N   0.67  13.0     N   12.1   13.1   11.8  1016.6  0.00  0.00   0.017   0.000   23.1    44   10.1   22.6   8.28  .0738    117    1    100.0    5 
21/05/19   6:55   13.7   13.7   13.4    75    9.3   7.0     N   0.58  14.0     N   12.8   13.4   12.6  1016.6  0.00  0.00   0.016   0.000   23.1    44   10.1   22.6   8.28  .0738    117    1    100.0    5 
21/05/19   7:00   13.8   13.8   13.7    74    9.3   8.0     N   0.67  15.0     N   12.7   13.5   12.3  1016.7  0.00  0.00   0.016   0.000   23.1    44   10.2   22.7   8.28  .0738    117    1    100.0    5 
21/05/19   7:05   14.1   14.1   13.8    74    9.5   8.0     N   0.67  14.0     N   12.9   13.7   12.6  1016.7  0.00  0.00   0.015   0.000   23.2    44   10.2   22.7   8.28  .0737    117    1    100.0    5 
21/05/19   7:10   14.2   14.2   14.1    73    9.4   9.0     N   0.75  16.0     N   12.7   13.9   12.3  1016.8  0.00  0.00   0.014   0.000   23.2    44   10.2   22.7   8.28  .0738    117    1    100.0    5 
21/05/19   7:15   14.4   14.4   14.2    74    9.8   9.0     N   0.75  14.0   NNE   12.9   14.1   12.6  1016.9  0.00  0.00   0.014   0.000   23.2    44   10.2   22.7   8.28  .0738    117    1    100.0    5 
21/05/19   7:20   14.6   14.6   14.4    73    9.8   8.0     N   0.67  14.0     N   13.5   14.2   13.2  1016.9  0.00  0.00   0.013   0.000   23.2    44   10.3   22.8   8.27  .0737    118    1    100.0    5 
21/05/19   7:25   14.7   14.7   14.6    73    9.9   7.0     N   0.58  13.0   NNW   14.1   14.4   13.8  1017.0  0.00  0.00   0.013   0.000   23.2    44   10.3   22.8   8.27  .0737    117    1    100.0    5 
21/05/19   7:30   14.9   14.9   14.7    73   10.1   6.0   NNE   0.50  11.0   NNE   14.6   14.6   14.3  1017.0  0.00  0.00   0.012   0.000   23.3    44   10.3   22.9   8.27  .0737    117    1    100.0    5 
21/05/19   7:35   15.2   15.2   14.9    73   10.4   5.0   NNE   0.42  10.0   NNW   15.2   14.9   14.9  1017.0  0.00  0.00   0.011   0.000   23.3    44   10.3   22.9   8.27  .0737    117    1    100.0    5 
21/05/19   7:40   15.4   15.4   15.2    72   10.4   7.0     N   0.58  13.0   NNE   15.0   15.2   14.7  1017.1  0.00  0.00   0.010   0.000   23.3    44   10.4   22.9   8.27  .0737    117    1    100.0    5 
21/05/19   7:45   15.6   15.6   15.4    71   10.3   9.0   NNE   0.75  14.0   NNE   14.3   15.2   13.9  1017.2  0.00  0.00   0.010   0.000   23.3    44   10.4   22.9   8.27  .0737    117    1    100.0    5 
21/05/19   7:50   15.6   15.6   15.6    71   10.4   8.0     N   0.67  13.0     N   14.8   15.3   14.4  1017.1  0.00  0.00   0.009   0.000   23.3    44   10.4   22.9   8.27  .0737    117    1    100.0    5 
21/05/19   7:55   15.8   15.8   15.6    71   10.5   5.0     N   0.42  11.0   NNW   15.8   15.4   15.4  1017.2  0.00  0.00   0.009   0.000   23.4    44   10.4   23.1   8.27  .0737    117    1    100.0    5 
21/05/19   8:00   15.9   15.9   15.8    69   10.3   8.0     N   0.67  13.0     N   15.2   15.6   14.8  1017.1  0.00  0.00   0.008   0.000   23.4    44   10.4   23.1   8.27  .0737    117    1    100.0    5 
21/05/19   8:05   16.1   16.1   15.9    69   10.4   8.0   NNE   0.67  15.0   NNE   15.3   15.7   15.0  1017.1  0.00  0.00   0.008   0.000   23.4    44   10.4   23.1   8.27  .0737    116    1    100.0    5 
21/05/19   8:10   16.2   16.2   16.1    69   10.5   6.0     N   0.50  11.0   NNE   16.1   15.9   15.8  1017.2  0.00  0.00   0.007   0.000   23.4    44   10.5   23.1   8.27  .0737    117    1    100.0    5 
21/05/19   8:15   16.4   16.4   16.2    67   10.3   8.0   NNE   0.67  12.0     N   15.8   16.1   15.4  1017.2  0.00  0.00   0.007   0.000   23.4    44   10.5   23.1   8.27  .0737    116    1    100.0    5 
21/05/19   8:20   16.6   16.7   16.5    67   10.5   7.0     N   0.58  11.0   NNE   16.4   16.3   16.1  1017.2  0.00  0.00   0.006   0.000   23.4    44   10.5   23.1   8.27  .0737    117    1    100.0    5 
21/05/19   8:25   16.9   16.9   16.7    66   10.5   5.0     N   0.42  11.0   NNE   16.9   16.6   16.6  1017.3  0.00  0.00   0.005   0.000   23.5    44   10.5   23.2   8.26  .0737    118    1    100.0    5 
21/05/19   8:30   17.2   17.2   16.9    63   10.1   6.0   NNW   0.50  12.0   NNW   17.2   16.7   16.7  1017.3  0.00  0.00   0.004   0.000   23.6    44   10.6   23.2   8.26  .0737    117    1    100.0    5 
21/05/19   8:35   17.3   17.3   17.2    62    9.9   6.0   NNE   0.50  10.0     N   17.3   16.8   16.8  1017.2  0.00  0.00   0.004   0.000   23.5    43   10.2   23.1   8.08  .0737    117    1    100.0    5 
21/05/19   8:40   17.4   17.4   17.3    61    9.8   7.0     N   0.58  12.0   NNE   17.4   16.9   16.9  1017.3  0.00  0.00   0.003   0.000   23.6    43   10.2   23.2   8.07  .0737    117    1    100.0    5 
21/05/19   8:45   17.6   17.6   17.4    60    9.7   6.0   NNE   0.50  11.0   NNE   17.6   17.1   17.1  1017.3  0.00  0.00   0.003   0.000   23.6    43   10.2   23.2   8.07  .0737    116    1    100.0    5 
21/05/19   8:50   17.8   17.8   17.6    58    9.4   5.0   NNE   0.42  11.0   NNE   17.8   17.2   17.2  1017.3  0.00  0.00   0.002   0.000   23.6    43   10.2   23.2   8.07  .0737    117    1    100.0    5 
21/05/19   8:55   17.9   17.9   17.8    55    8.8   5.0    NW   0.42   9.0   NNW   17.9   17.2   17.2  1017.3  0.00  0.00   0.001   0.000   23.6    43   10.3   23.3   8.07  .0737    117    1    100.0    5 
21/05/19   9:00   18.1   18.1   17.9    54    8.6   5.0   NNW   0.42  10.0   NNE   18.1   17.3   17.3  1017.3  0.00  0.00   0.001   0.000   23.6    43   10.3   23.3   8.07  .0737    117    1    100.0    5 
21/05/19   9:05   18.2   18.2   18.1    53    8.5   5.0   NNW   0.42   9.0     N   18.2   17.4   17.4  1017.3  0.00  0.00   0.000   0.000   23.7    43   10.3   23.3   8.07  .0737    117    1    100.0    5 
21/05/19   9:10   18.3   18.3   18.2    52    8.3   5.0   NNW   0.42  11.0    NW   18.3   17.5   17.5  1017.3  0.00  0.00   0.000   0.000   23.7    42   10.0   23.3   7.96  .0737    117    1    100.0    5 
21/05/19   9:15   18.3   18.3   18.3    52    8.3   6.0   NNW   0.50  13.0     N   18.3   17.5   17.5  1017.2  0.00  0.00   0.000   0.000   23.7    42   10.0   23.3   7.96  .0737    117    1    100.0    5 
21/05/19   9:20   18.6   18.6   18.3    51    8.2   5.0     N   0.42  11.0     N   18.6   17.7   17.7  1017.2  0.00  0.00   0.000   0.001   23.7    42   10.0   23.3   7.96  .0737    117    1    100.0    5 
21/05/19   9:25   18.8   18.8   18.6    48    7.5   5.0     N   0.42  12.0   NNW   18.8   17.8   17.8  1017.3  0.00  0.00   0.000   0.002   23.7    42   10.0   23.3   7.96  .0737    118    1    100.0    5 
21/05/19   9:30   18.9   18.9   18.8    49    8.0   5.0     N   0.42  10.0     N   18.9   18.0   18.0  1017.3  0.00  0.00   0.000   0.002   23.7    42   10.0   23.3   7.96  .0737    117    1    100.0    5 
21/05/19   9:35   19.2   19.2   18.9    47    7.6   5.0     N   0.42  10.0   NNW   19.2   18.2   18.2  1017.3  0.00  0.00   0.000   0.003   23.7    42   10.0   23.3   7.96  .0737    117    1    100.0    5 
21/05/19   9:40   19.2   19.2   19.2    47    7.6   4.0   NNW   0.33  11.0    NW   19.2   18.2   18.2  1017.3  0.00  0.00   0.000   0.003   23.7    41    9.7   23.3   7.76  .0737    115    1    100.0    5 
21/05/19   9:45   19.2   19.2   19.2    47    7.6   4.0   NNW   0.33  11.0    NW   19.2   18.2   18.2  1017.3  0.00  0.00   0.000   0.003   23.8    41    9.7   23.4   7.76  .0737    117    1    100.0    5 
21/05/19   9:50   19.2   19.2   19.1    47    7.6   7.0   NNW   0.58  13.0   NNW   19.2   18.2   18.2  1017.3  0.00  0.00   0.000   0.003   23.8    41    9.7   23.4   7.76  .0737    117    1    100.0    5 
21/05/19   9:55   19.3   19.3   19.1    46    7.4   4.0   NNW   0.33  11.0   NNW   19.3   18.3   18.3  1017.3  0.00  0.00   0.000   0.003   23.8    41    9.7   23.4   7.76  .0737    117    1    100.0    5 
21/05/19  10:00   19.4   19.5   19.3    43    6.5   6.0     N   0.50  11.0     N   19.4   18.3   18.3  1017.4  0.00  0.00   0.000   0.004   23.8    41    9.7   23.4   7.76  .0737    117    1    100.0    5 
21/05/19  10:05   19.6   19.6   19.4    44    7.0   4.0     N   0.33  10.0   NNW   19.6   18.4   18.4  1017.3  0.00  0.00   0.000   0.004   23.8    40    9.4   23.4   7.65  .0737    117    1    100.0    5 
21/05/19  10:10   19.8   19.8   19.6    47    8.1   1.0     N   0.08   6.0     N   19.8   18.9   18.9  1017.4  0.00  0.00   0.000   0.005   23.8    40    9.4   23.4   7.65  .0737    117    1    100.0    5 
21/05/19  10:15   20.0   20.0   19.8    44    7.4   2.0    NW   0.17   7.0   NNW   20.0   18.9   18.9  1017.4  0.00  0.00   0.000   0.006   23.8    40    9.4   23.4   7.65  .0737    117    1    100.0    5 
21/05/19  10:20   20.0   20.0   20.0    47    8.3   5.0   NNW   0.42  10.0   NNW   20.0   19.1   19.1  1017.4  0.00  0.00   0.000   0.006   23.9    40    9.5   23.4   7.65  .0737    117    1    100.0    5 
21/05/19  10:25   19.9   20.0   19.9    47    8.3   2.0   WNW   0.17   7.0    NW   19.9   19.1   19.1  1017.4  0.00  0.00   0.000   0.006   23.9    40    9.5   23.5   7.65  .0736    117    1    100.0    5 
21/05/19  10:30   20.0   20.0   19.9    48    8.7   1.0    NW   0.08   6.0    NW   20.0   19.2   19.2  1017.4  0.00  0.00   0.000   0.006   23.9    40    9.5   23.5   7.65  .0736    118    1    100.0    5 
21/05/19  10:35   20.1   20.1   20.1    47    8.4   3.0     W   0.25   8.0    NW   20.1   19.2   19.2  1017.3  0.00  0.00   0.000   0.006   23.9    40    9.5   23.5   7.65  .0736    117    1    100.0    5 
21/05/19  10:40   20.1   20.1   20.0    47    8.4   1.0     W   0.08   4.0     W   20.1   19.2   19.2  1017.4  0.00  0.00   0.000   0.006   23.9    40    9.5   23.5   7.65  .0736    117    1    100.0    5 
21/05/19  10:45   20.2   20.2   20.1    59   11.9   2.0   WSW   0.17   8.0    SW   20.2   19.9   19.9  1017.4  0.00  0.00   0.000   0.007   24.0    40    9.6   23.6   7.65  .0736    116    1    100.0    5 
21/05/19  10:50   19.2   20.2   19.2    63   12.0   5.0   SSW   0.42  11.0     S   19.2   19.1   19.1  1017.4  0.00  0.00   0.000   0.003   24.0    41    9.9   23.6   7.75  .0736    117    1    100.0    5 
21/05/19  10:55   18.6   19.2   18.6    63   11.4   5.0     S   0.42   9.0     S   18.6   18.4   18.4  1017.4  0.00  0.00   0.000   0.001   24.1    41   10.0   23.7   7.75  .0736    117    1    100.0    5 
21/05/19  11:00   18.3   18.6   18.3    64   11.3   5.0     S   0.42  11.0     S   18.3   18.1   18.1  1017.4  0.00  0.00   0.000   0.000   24.1    42   10.3   23.7   7.94  .0736    117    1    100.0    5 
21/05/19  11:05   17.5   18.3   17.5    67   11.3   8.0    SW   0.67  11.0    SW   17.1   17.3   16.8  1017.5  0.00  0.00   0.003   0.000   24.1    42   10.4   23.8   7.94  .0736    116    1    100.0    5 
21/05/19  11:10   16.8   17.4   16.8    72   11.7   8.0    SW   0.67  12.0   SSW   16.2   16.6   16.0  1017.4  0.00  0.00   0.005   0.000   24.1    43   10.7   23.8   8.05  .0735    117    1    100.0    5 
21/05/19  11:15   16.5   16.8   16.5    72   11.4  10.0   SSW   0.83  12.0    SW   14.9   16.3   14.7  1017.5  0.00  0.00   0.006   0.000   24.1    44   11.0   23.8   8.24  .0735    116    1    100.0    5 
21/05/19  11:20   16.3   16.5   16.3    74   11.7   8.0   SSW   0.67  12.0   SSW   15.7   16.2   15.5  1017.5  0.00  0.00   0.007   0.000   24.1    44   11.0   23.8   8.24  .0735    117    1    100.0    5 
21/05/19  11:25   16.2   16.3   16.2    74   11.6   7.0    SW   0.58  10.0    SW   15.9   16.1   15.8  1017.5  0.00  0.00   0.007   0.000   24.0    45   11.3   23.8   8.45  .0735    117    1    100.0    5 
21/05/19  11:30   16.2   16.2   16.2    74   11.6   8.0   SSW   0.67  11.0   SSW   15.5   16.1   15.3  1017.5  0.00  0.00   0.007   0.000   23.9    45   11.3   23.8   8.45  .0735    118    1    100.0    5 
21/05/19  11:35   16.1   16.2   16.1    73   11.2  10.0    SW   0.83  12.0    SW   14.4   15.8   14.2  1017.4  0.00  0.00   0.008   0.000   23.9    45   11.3   23.8   8.45  .0735    117    1    100.0    5 
21/05/19  11:40   16.1   16.1   16.0    73   11.2  10.0    SW   0.83  12.0    SW   14.4   15.8   14.2  1017.5  0.00  0.00   0.008   0.000   23.9    45   11.2   23.7   8.45  .0736    117    1    100.0    5 
21/05/19  11:45   16.1   16.1   16.1    73   11.3   9.0    SW   0.75  12.0    SW   14.9   15.9   14.7  1017.5  0.00  0.00   0.008   0.000   23.8    45   11.2   23.7   8.45  .0736    117    1    100.0    5 
21/05/19  11:50   16.3   16.3   16.1    74   11.7   7.0    SW   0.58   9.0    SW   16.1   16.2   15.9  1017.5  0.00  0.00   0.007   0.000   23.8    45   11.1   23.6   8.45  .0736    117    1    100.0    5 
21/05/19  11:55   16.5   16.5   16.3    73   11.6   6.0   SSW   0.50   9.0   SSW   16.4   16.3   16.3  1017.5  0.00  0.00   0.006   0.000   23.7    45   11.1   23.5   8.45  .0736    115    1    100.0    5 
21/05/19  12:00   16.6   16.6   16.4    72   11.5   7.0    SW   0.58  10.0    SW   16.4   16.4   16.2  1017.5  0.00  0.00   0.006   0.000   23.8    45   11.1   23.6   8.45  .0736    117    1    100.0    5 
21/05/19  12:05   16.7   16.7   16.6    71   11.4   8.0    SW   0.67  11.0    SW   16.1   16.5   15.9  1017.5  0.00  0.00   0.006   0.000   23.7    45   11.1   23.5   8.45  .0736    117    1    100.0    5 
21/05/19  12:10   16.6   16.7   16.6    71   11.3   9.0    SW   0.75  12.0    SW   15.4   16.3   15.2  1017.5  0.00  0.00   0.006   0.000   23.7    45   11.0   23.4   8.45  .0736    117    1    100.0    5 
21/05/19  12:15   16.7   16.7   16.6    72   11.6   8.0    SW   0.67  10.0    SW   16.1   16.5   15.9  1017.5  0.00  0.00   0.006   0.000   23.7    45   11.0   23.4   8.45  .0736    117    1    100.0    5 
21/05/19  12:20   16.8   16.8   16.7    70   11.3   8.0    SW   0.67  10.0    SW   16.2   16.5   15.9  1017.5  0.00  0.00   0.005   0.000   23.7    45   11.0   23.4   8.45  .0736    117    1    100.0    5 
21/05/19  12:25   16.8   16.8   16.7    69   11.1   9.0    SW   0.75  12.0    SW   15.7   16.5   15.4  1017.5  0.00  0.00   0.005   0.000   23.6    45   11.0   23.4   8.45  .0736    117    1    100.0    5 
21/05/19  12:30   16.6   16.8   16.5    71   11.3   9.0    SW   0.75  12.0    SW   15.4   16.3   15.2  1017.5  0.00  0.00   0.006   0.000   23.6    45   10.9   23.3   8.45  .0737    117    1    100.0    5 
21/05/19  12:35   16.6   16.6   16.6    70   11.1   9.0   SSW   0.75  13.0    SW   15.4   16.3   15.2  1017.6  0.00  0.00   0.006   0.000   23.6    45   10.9   23.3   8.45  .0737    117    1    100.0    5 
21/05/19  12:40   16.5   16.6   16.5    71   11.2   9.0   SSW   0.75  11.0    SW   15.4   16.2   15.1  1017.6  0.00  0.00   0.006   0.000   23.6    45   10.9   23.3   8.45  .0737    117    1    100.0    5 
21/05/19  12:45   16.4   16.5   16.4    72   11.4   8.0   SSW   0.67  10.0   SSW   15.8   16.2   15.6  1017.6  0.00  0.00   0.007   0.000   23.6    45   10.9   23.3   8.45  .0737    117    1    100.0    5 
21/05/19  12:50   16.7   16.7   16.4    73   11.8   7.0   SSW   0.58  10.0   SSW   16.5   16.5   16.3  1017.6  0.00  0.00   0.006   0.000   23.6    45   10.9   23.3   8.45  .0737    117    1    100.0    5 
21/05/19  12:55   16.9   16.9   16.7    73   12.0   6.0   SSW   0.50   9.0   SSW   16.9   16.7   16.7  1017.6  0.00  0.00   0.005   0.000   23.6    46   11.3   23.4   8.56  .0736    116    1    100.0    5 
21/05/19  13:00   16.8   16.9   16.8    73   11.9   6.0   SSW   0.50   9.0   SSW   16.8   16.6   16.6  1017.6  0.00  0.00   0.005   0.000   23.7    46   11.4   23.5   8.56  .0736    117    1    100.0    5 
21/05/19  13:05   16.9   16.9   16.8    73   12.0   7.0     S   0.58   9.0     S   16.8   16.7   16.6  1017.6  0.00  0.00   0.005   0.000   23.7    46   11.4   23.5   8.56  .0736    117    1    100.0    5 
21/05/19  13:10   17.1   17.1   16.9    73   12.2   7.0     S   0.58   8.0     S   16.9   16.9   16.8  1017.6  0.00  0.00   0.004   0.000   23.7    47   11.7   23.6   8.75  .0736    117    1    100.0    5 
21/05/19  13:15   17.1   17.1   17.0    74   12.4   8.0     S   0.67  11.0     S   16.5   16.9   16.4  1017.6  0.00  0.00   0.004   0.000   23.8    47   11.8   23.7   8.75  .0735    116    1    100.0    5 
21/05/19  13:20   17.1   17.1   17.0    74   12.4   8.0     S   0.67  11.0     S   16.6   17.0   16.5  1017.5  0.00  0.00   0.004   0.000   23.9    47   11.9   23.8   8.75  .0735    117    1    100.0    5 
21/05/19  13:25   17.3   17.3   17.1    74   12.7   8.0   SSE   0.67  11.0     S   16.8   17.3   16.8  1017.6  0.00  0.00   0.003   0.000   23.9    48   12.3   23.9   8.95  .0735    117    1    100.0    5 
21/05/19  13:30   16.9   17.3   16.9    73   12.1   9.0   SSW   0.75  14.0   SSW   15.9   16.8   15.8  1017.5  0.00  0.00   0.005   0.000   24.0    48   12.3   23.9   8.95  .0735    117    1    100.0    5 
21/05/19  13:35   16.6   16.9   16.6    74   12.0  12.0   SSW   1.00  16.0    SW   14.4   16.4   14.2  1017.6  0.00  0.00   0.006   0.000   24.1    48   12.4   24.0   8.94  .0735    117    1    100.0    5 
21/05/19  13:40   16.2   16.6   16.2    74   11.5  12.0   SSW   1.00  15.0   SSW   13.9   15.9   13.7  1017.6  0.00  0.00   0.008   0.000   24.1    47   12.1   24.0   8.74  .0735    117    1    100.0    5 
21/05/19  13:45   16.1   16.2   16.1    76   11.8  11.0   SSW   0.92  14.0   SSW   14.1   15.9   14.0  1017.6  0.00  0.00   0.008   0.000   24.1    47   12.1   24.0   8.74  .0735    117    1    100.0    5 
21/05/19  13:50   16.0   16.1   16.0    76   11.8   9.0   SSW   0.75  14.0    SW   14.8   15.8   14.7  1017.6  0.00  0.00   0.008   0.000   24.1    47   12.1   24.0   8.74  .0735    117    1    100.0    5 
21/05/19  13:55   15.8   16.0   15.8    76   11.6  10.0    SW   0.83  13.0   SSW   14.2   15.7   14.1  1017.6  0.00  0.00   0.009   0.000   24.1    47   12.0   23.9   8.74  .0735    117    1    100.0    5 
21/05/19  14:00   15.8   15.9   15.8    76   11.6   9.0    SW   0.75  13.0    SW   14.6   15.6   14.4  1017.6  0.00  0.00   0.009   0.000   24.1    47   12.0   23.9   8.74  .0735    117    1    100.0    5 
21/05/19  14:05   16.0   16.0   15.8    76   11.8   8.0    SW   0.67  12.0    SW   15.3   15.8   15.1  1017.6  0.00  0.00   0.008   0.000   24.0    47   12.0   23.9   8.75  .0735    116    1    100.0    5 
21/05/19  14:10   15.9   16.1   15.9    75   11.5   9.0    SW   0.75  12.0    SW   14.7   15.8   14.6  1017.7  0.00  0.00   0.008   0.000   23.9    47   11.9   23.8   8.75  .0735    117    1    100.0    5 
21/05/19  14:15   16.0   16.0   15.9    75   11.6   9.0    SW   0.75  13.0    SW   14.8   15.8   14.7  1017.6  0.00  0.00   0.008   0.000   23.9    47   11.9   23.8   8.75  .0735    117    1    100.0    5 
21/05/19  14:20   16.0   16.1   16.0    74   11.4  11.0    SW   0.92  15.0    SW   14.1   15.8   13.8  1017.5  0.00  0.00   0.008   0.000   23.9    47   11.9   23.8   8.75  .0735    117    1    100.0    5 
21/05/19  14:25   16.1   16.1   16.0    74   11.4  11.0    SW   0.92  15.0    SW   14.1   15.8   13.9  1017.5  0.00  0.00   0.008   0.000   23.8    46   11.5   23.7   8.55  .0736    117    1    100.0    5 
21/05/19  14:30   16.1   16.1   16.1    73   11.3  12.0    SW   1.00  17.0    SW   13.8   15.9   13.6  1017.4  0.00  0.00   0.008   0.000   23.8    46   11.5   23.6   8.55  .0736    117    1    100.0    5 
21/05/19  14:35   16.2   16.2   16.1    74   11.5  10.0    SW   0.83  15.0    SW   14.6   15.9   14.3  1017.4  0.00  0.00   0.008   0.000   23.7    46   11.4   23.6   8.56  .0736    116    1    100.0    5 
21/05/19  14:40   16.2   16.3   16.2    72   11.2  12.0    SW   1.00  17.0   WSW   13.9   15.9   13.7  1017.4  0.00  0.00   0.007   0.000   23.7    46   11.4   23.5   8.56  .0736    117    1    100.0    5 
21/05/19  14:45   16.2   16.3   16.2    72   11.2  12.0    SW   1.00  16.0    SW   13.9   15.9   13.7  1017.3  0.00  0.00   0.007   0.000   23.6    46   11.3   23.4   8.56  .0736    117    1    100.0    5 
21/05/19  14:50   16.4   16.4   16.2    72   11.3  13.0    SW   1.08  16.0    SW   13.9   16.2   13.7  1017.3  0.00  0.00   0.007   0.000   23.6    46   11.3   23.3   8.56  .0736    117    1    100.0    5 
21/05/19  14:55   16.4   16.5   16.4    71   11.2  14.0    SW   1.17  18.0    SW   13.7   16.2   13.4  1017.4  0.00  0.00   0.007   0.000   23.4    46   11.2   23.2   8.57  .0737    117    1    100.0    5 
21/05/19  15:00   16.3   16.4   16.3    72   11.2  13.0    SW   1.08  17.0    SW   13.8   16.0   13.5  1017.4  0.00  0.00   0.007   0.000   23.4    46   11.1   23.1   8.57  .0737    117    1    100.0    5 
21/05/19  15:05   16.0   16.3   16.0    72   11.0  14.0   WSW   1.17  17.0   WSW   13.2   15.7   12.9  1017.5  0.00  0.00   0.008   0.000   23.3    46   11.0   22.9   8.57  .0737    117    1    100.0    5 
21/05/19  15:10   16.0   16.0   15.9    73   11.2  14.0   WSW   1.17  17.0   WSW   13.2   15.8   13.0  1017.6  0.00  0.00   0.008   0.000   23.2    46   11.0   22.9   8.57  .0737    116    1    100.0    5 
21/05/19  15:15   16.2   16.2   16.1    73   11.4  14.0   WSW   1.17  17.0   WSW   13.4   16.0   13.2  1017.5  0.00  0.00   0.007   0.000   23.2    47   11.2   22.8   8.75  .0737    117    1    100.0    5 
21/05/19  15:20   16.2   16.2   16.1    74   11.5  14.0   WSW   1.17  19.0   WSW   13.4   15.9   13.2  1017.5  0.00  0.00   0.008   0.000   23.1    47   11.2   22.8   8.75  .0738    117    1    100.0    5 
21/05/19  15:25   15.8   16.2   15.8    74   11.2  14.0   WSW   1.17  17.0   WSW   13.1   15.6   12.8  1017.5  0.00  0.00   0.009   0.000   23.0    47   11.1   22.7   8.75  .0738    117    1    100.0    5 
21/05/19  15:30   15.7   15.8   15.6    76   11.5  13.0   WSW   1.08  18.0   WSW   13.1   15.6   12.9  1017.6  0.00  0.00   0.009   0.000   22.9    48   11.3   22.6   8.92  .0738    117    1    100.0    5 
21/05/19  15:35   16.1   16.1   15.8    75   11.6  13.0   WSW   1.08  17.0   WSW   13.5   15.9   13.3  1017.5  0.00  0.00   0.008   0.000   22.9    48   11.3   22.6   8.91  .0738    117    1    100.0    5 
21/05/19  15:40   16.2   16.2   16.1    75   11.7  12.0   WSW   1.00  19.0    SW   13.9   16.0   13.7  1017.6  0.00  0.00   0.008   0.000   22.8    48   11.2   22.5   8.91  .0738    117    1    100.0    5 
21/05/19  15:45   16.2   16.4   16.2    74   11.6  12.0   WSW   1.00  17.0   WSW   13.9   16.1   13.8  1017.6  0.00  0.00   0.007   0.000   22.8    49   11.5   22.4   9.05  .0738    118    1    100.0    5 
21/05/19  15:50   16.1   16.2   16.0    75   11.6  12.0   WSW   1.00  15.0   WSW   13.8   15.9   13.6  1017.6  0.00  0.00   0.008   0.000   22.7    49   11.5   22.4   9.05  .0738    117    1    100.0    5 
21/05/19  15:55   16.1   16.1   16.0    75   11.6  12.0   WSW   1.00  15.0   WSW   13.8   15.9   13.6  1017.6  0.00  0.00   0.008   0.000   22.7    49   11.5   22.4   9.05  .0738    117    1    100.0    5 
21/05/19  16:00   15.8   16.1   15.8    76   11.6  10.0   WSW   0.83  14.0   WSW   14.2   15.7   14.1  1017.7  0.00  0.00   0.009   0.000   22.7    49   11.4   22.3   9.05  .0739    117    1    100.0    5 
21/05/19  16:05   15.6   15.8   15.6    76   11.4  12.0   WSW   1.00  16.0   WSW   13.3   15.4   13.1  1017.7  0.00  0.00   0.009   0.000   22.7    50   11.7   22.3   9.25  .0738    117    1    100.0    5 
21/05/19  16:10   15.8   15.8   15.6    77   11.8  11.0   WSW   0.92  15.0   WSW   13.8   15.7   13.7  1017.7  0.00  0.00   0.009   0.000   22.6    50   11.6   22.2   9.25  .0739    117    1    100.0    5 
21/05/19  16:15   16.1   16.1   15.8    77   12.0  10.0   WSW   0.83  14.0   WSW   14.4   15.9   14.3  1017.7  0.00  0.00   0.008   0.000   22.6    50   11.6   22.2   9.25  .0739    115    1    100.0    5 
21/05/19  16:20   16.0   16.2   16.0    76   11.8  11.0   WSW   0.92  15.0    SW   14.1   15.8   13.9  1017.7  0.00  0.00   0.008   0.000   22.5    50   11.6   22.1   9.25  .0739    115    1    100.0    5 
21/05/19  16:25   16.1   16.2   16.0    76   11.8  10.0   WSW   0.83  14.0   WSW   14.4   15.9   14.3  1017.7  0.00  0.00   0.008   0.000   22.5    50   11.6   22.1   9.25  .0739    116    1    100.0    5 
21/05/19  16:30   15.8   16.1   15.8    76   11.6  10.0   WSW   0.83  15.0   WSW   14.1   15.6   13.9  1017.7  0.00  0.00   0.009   0.000   22.5    50   11.6   22.1   9.25  .0739    117    1    100.0    5 
21/05/19  16:35   15.7   15.8   15.7    77   11.7   9.0   WSW   0.75  13.0   WSW   14.5   15.6   14.3  1017.7  0.00  0.00   0.009   0.000   22.4    50   11.5   22.1   9.25  .0739    117    1    100.0    5 
21/05/19  16:40   15.8   15.8   15.7    77   11.8  10.0   WSW   0.83  14.0   WSW   14.2   15.7   14.1  1017.7  0.00  0.00   0.009   0.000   22.4    50   11.5   22.1   9.25  .0739    117    1    100.0    5 
21/05/19  16:45   15.7   15.9   15.7    77   11.7  11.0   WSW   0.92  13.0   WSW   13.7   15.6   13.6  1017.7  0.00  0.00   0.009   0.000   22.4    51   11.8   22.0   9.40  .0739    117    1    100.0    5 
21/05/19  16:50   15.7   15.7   15.7    77   11.7  10.0   WSW   0.83  14.0   WSW   14.1   15.6   13.9  1017.6  0.00  0.00   0.009   0.000   22.4    51   11.8   22.0   9.40  .0739    117    1    100.0    5 
21/05/19  16:55   15.8   15.8   15.7    77   11.8  11.0   WSW   0.92  15.0   WSW   13.8   15.7   13.7  1017.7  0.00  0.00   0.009   0.000   22.4    51   11.8   22.0   9.40  .0739    116    1    100.0    5 
21/05/19  17:00   15.8   15.8   15.8    77   11.8  11.0   WSW   0.92  16.0   WSW   13.8   15.7   13.7  1017.6  0.00  0.00   0.009   0.000   22.3    51   11.7   21.9   9.41  .0739    116    1    100.0    5 
21/05/19  17:05   15.9   15.9   15.8    78   12.1  10.0   WSW   0.83  16.0   WSW   14.3   15.9   14.3  1017.6  0.00  0.00   0.008   0.000   22.3    51   11.7   21.9   9.41  .0739    117    1    100.0    5 
21/05/19  17:10   15.9   15.9   15.9    77   11.9  10.0   WSW   0.83  15.0   WSW   14.3   15.8   14.2  1017.7  0.00  0.00   0.008   0.000   22.3    51   11.7   21.9   9.41  .0739    116    1    100.0    5 
21/05/19  17:15   15.8   15.9   15.8    77   11.8  11.0   WSW   0.92  13.0   WSW   13.8   15.7   13.7  1017.7  0.00  0.00   0.009   0.000   22.3    51   11.7   21.8   9.41  .0739    117    1    100.0    5 
21/05/19  17:20   16.1   16.1   15.8    77   12.0   8.0   WSW   0.67  11.0   WSW   15.3   15.9   15.2  1017.8  0.00  0.00   0.008   0.000   22.3    51   11.7   21.8   9.41  .0740    117    1    100.0    5 
21/05/19  17:25   15.9   16.1   15.9    76   11.7   9.0   WSW   0.75  14.0   WSW   14.7   15.8   14.6  1017.7  0.00  0.00   0.008   0.000   22.3    51   11.7   21.8   9.41  .0740    117    1    100.0    5 
21/05/19  17:30   15.8   15.9   15.8    76   11.6   9.0   WSW   0.75  13.0   WSW   14.6   15.6   14.4  1017.7  0.00  0.00   0.009   0.000   22.2    51   11.6   21.8   9.41  .0740    117    1    100.0    5 
21/05/19  17:35   15.7   15.8   15.7    76   11.4   7.0   WSW   0.58  12.0   WSW   15.2   15.5   15.1  1017.8  0.00  0.00   0.009   0.000   22.2    51   11.6   21.8   9.41  .0740    117    1    100.0    5 
21/05/19  17:40   15.7   15.7   15.7    77   11.6   8.0   WSW   0.67  12.0   WSW   14.8   15.5   14.7  1017.8  0.00  0.00   0.009   0.000   22.2    51   11.5   21.7   9.41  .0740    117    1    100.0    5 
21/05/19  17:45   15.6   15.7   15.6    77   11.6   8.0   WSW   0.67  12.0   WSW   14.8   15.4   14.6  1017.7  0.00  0.00   0.009   0.000   22.2    51   11.5   21.7   9.41  .0740    117    1    100.0    5 
21/05/19  17:50   15.6   15.6   15.6    77   11.6   8.0   WSW   0.67  12.0   WSW   14.8   15.4   14.6  1017.7  0.00  0.00   0.009   0.000   22.1    51   11.5   21.6   9.41  .0740    118    1    100.0    5 
21/05/19  17:55   15.6   15.7   15.6    77   11.6   8.0   WSW   0.67  12.0   WSW   14.8   15.4   14.6  1017.7  0.00  0.00   0.009   0.000   22.1    52   11.8   21.7   9.61  .0740    116    1    100.0    5 
21/05/19  18:00   15.6   15.6   15.6    78   11.8   9.0   WSW   0.75  11.0   WSW   14.3   15.5   14.2  1017.7  0.00  0.00   0.009   0.000   22.1    52   11.7   21.6   9.62  .0740    117    1    100.0    5 
21/05/19  18:05   15.7   15.7   15.6    78   11.8   8.0   WSW   0.67  11.0   WSW   14.8   15.6   14.7  1017.7  0.00  0.00   0.009   0.000   22.1    52   11.7   21.6   9.62  .0740    117    1    100.0    5 
21/05/19  18:10   15.7   15.7   15.6    78   11.8   7.0   WSW   0.58  12.0   WSW   15.2   15.6   15.1  1017.8  0.00  0.00   0.009   0.000   22.0    52   11.7   21.5   9.62  .0740    117    1    100.0    5 
21/05/19  18:15   15.7   15.7   15.7    78   11.8   7.0   WSW   0.58  10.0   WSW   15.2   15.6   15.1  1017.8  0.00  0.00   0.009   0.000   22.0    52   11.7   21.5   9.62  .0740    117    1    100.0    5 
21/05/19  18:20   15.7   15.7   15.7    78   11.8   7.0   WSW   0.58  11.0   WSW   15.2   15.6   15.1  1017.8  0.00  0.00   0.009   0.000   22.0    53   12.0   21.5   9.79  .0740    116    1    100.0    5 
21/05/19  18:25   15.6   15.7   15.6    78   11.8   7.0   WSW   0.58  12.0   WSW   15.2   15.5   15.1  1017.8  0.00  0.00   0.009   0.000   22.0    52   11.7   21.5   9.62  .0740    117    1    100.0    5 
21/05/19  18:30   15.6   15.6   15.6    78   11.8   6.0   WSW   0.50  10.0   WSW   15.4   15.5   15.3  1017.8  0.00  0.00   0.009   0.000   21.9    53   11.9   21.4   9.79  .0740    116    1    100.0    5 
21/05/19  18:35   15.7   15.7   15.6    78   11.8   5.0   WSW   0.42   9.0   WSW   15.7   15.6   15.6  1017.9  0.00  0.00   0.009   0.000   21.9    53   11.9   21.4   9.79  .0740    117    1    100.0    5 
21/05/19  18:40   15.7   15.7   15.7    78   11.8   3.0   WSW   0.25   7.0   WSW   15.7   15.6   15.6  1017.9  0.00  0.00   0.009   0.000   21.9    53   11.9   21.4   9.79  .0740    117    1    100.0    5 
21/05/19  18:45   15.7   15.7   15.7    78   11.9   4.0   WSW   0.33   8.0   WSW   15.7   15.6   15.6  1018.0  0.00  0.00   0.009   0.000   21.9    53   11.9   21.4   9.79  .0740    117    1    100.0    5 
21/05/19  18:50   15.7   15.7   15.7    78   11.8   6.0   WSW   0.50  10.0   WSW   15.4   15.6   15.3  1018.0  0.00  0.00   0.009   0.000   21.9    53   11.9   21.4   9.79  .0740    117    1    100.0    5 
21/05/19  18:55   15.6   15.7   15.6    78   11.8   4.0   WSW   0.33   8.0   WSW   15.6   15.5   15.5  1018.0  0.00  0.00   0.009   0.000   21.9    53   11.9   21.4   9.79  .0740    118    1    100.0    5 
21/05/19  19:00   15.5   15.6   15.5    78   11.7   6.0     W   0.50   9.0     W   15.3   15.4   15.2  1018.1  0.00  0.00   0.010   0.000   21.9    53   11.9   21.3   9.79  .0741    117    1    100.0    5 
21/05/19  19:05   15.4   15.5   15.4    78   11.6   5.0     W   0.42   9.0     W   15.4   15.3   15.3  1018.1  0.00  0.00   0.010   0.000   21.9    53   11.9   21.3   9.79  .0741    116    1    100.0    5 
21/05/19  19:10   15.4   15.4   15.4    78   11.6   4.0     W   0.33   8.0     W   15.4   15.3   15.3  1018.1  0.00  0.00   0.010   0.000   21.9    53   11.9   21.3   9.79  .0741    117    1    100.0    5 
21/05/19  19:15   15.4   15.4   15.4    78   11.6   5.0     W   0.42   9.0     W   15.4   15.3   15.3  1018.0  0.00  0.00   0.010   0.000   21.9    53   11.9   21.3   9.79  .0741    117    1    100.0    5 
21/05/19  19:20   15.3   15.4   15.3    77   11.3   5.0     W   0.42  10.0     W   15.3   15.2   15.1  1018.1  0.00  0.00   0.010   0.000   21.8    52   11.5   21.2   9.62  .0741    116    1    100.0    5 
21/05/19  19:25   15.3   15.4   15.3    77   11.3   5.0     W   0.42   8.0     W   15.3   15.2   15.1  1018.1  0.00  0.00   0.010   0.000   21.8    52   11.5   21.2   9.62  .0741    117    1    100.0    5 
21/05/19  19:30   15.3   15.3   15.3    77   11.3   4.0     W   0.33   9.0   WSW   15.3   15.1   15.1  1018.1  0.00  0.00   0.011   0.000   21.8    52   11.5   21.2   9.63  .0741    117    1    100.0    5 
21/05/19  19:35   15.2   15.3   15.2    77   11.2   4.0   WSW   0.33   7.0   WSW   15.2   15.1   15.1  1018.2  0.00  0.00   0.011   0.000   21.8    52   11.5   21.2   9.63  .0741    116    1    100.0    5 
21/05/19  19:40   15.2   15.2   15.2    77   11.2   3.0   WSW   0.25   7.0   WSW   15.2   14.9   14.9  1018.2  0.00  0.00   0.011   0.000   21.7    52   11.4   21.1   9.63  .0741    117    1    100.0    5 
21/05/19  19:45   15.2   15.2   15.2    77   11.2   1.0   WSW   0.08   5.0   WSW   15.2   14.9   14.9  1018.3  0.00  0.00   0.011   0.000   21.7    52   11.4   21.1   9.63  .0741    116    1    100.0    5 
21/05/19  19:50   15.1   15.2   15.1    77   11.1   0.0   WSW   0.00   4.0   WSW   15.1   14.9   14.9  1018.3  0.00  0.00   0.011   0.000   21.7    52   11.4   21.1   9.63  .0741    117    1    100.0    5 
21/05/19  19:55   15.1   15.1   15.1    77   11.1   0.0   WSW   0.00   1.0   WSW   15.1   14.9   14.9  1018.3  0.00  0.00   0.011   0.000   21.8    52   11.5   21.2   9.63  .0741    116    1    100.0    5 
21/05/19  20:00   15.1   15.1   15.1    77   11.1   0.0   WSW   0.00   1.0   WSW   15.1   14.8   14.8  1018.3  0.00  0.00   0.011   0.000   21.8    52   11.5   21.2   9.62  .0741    117    1    100.0    5 
21/05/19  20:05   15.0   15.1   15.0    77   11.0   0.0   ---   0.00   0.0   ---   15.0   14.8   14.8  1018.4  0.00  0.00   0.012   0.000   21.9    52   11.6   21.3   9.62  .0741    116    1    100.0    5 
21/05/19  20:10   14.9   15.0   14.9    77   10.9   0.0   ---   0.00   0.0   ---   14.9   14.7   14.7  1018.4  0.00  0.00   0.012   0.000   21.9    51   11.3   21.3   9.42  .0741    117    1    100.0    5 
21/05/19  20:15   14.8   14.9   14.8    77   10.8   0.0   ---   0.00   0.0   ---   14.8   14.6   14.6  1018.4  0.00  0.00   0.012   0.000   22.0    51   11.4   21.4   9.42  .0741    117    1    100.0    5 
21/05/19  20:20   14.8   14.8   14.8    77   10.8   0.0   ---   0.00   0.0   ---   14.8   14.6   14.6  1018.4  0.00  0.00   0.012   0.000   22.1    51   11.4   21.5   9.42  .0741    117    1    100.0    5 
21/05/19  20:25   14.8   14.8   14.8    76   10.6   0.0   ---   0.00   0.0   ---   14.8   14.6   14.6  1018.4  0.00  0.00   0.012   0.000   22.1    51   11.5   21.6   9.41  .0741    116    1    100.0    5 
21/05/19  20:30   14.7   14.8   14.7    76   10.5   0.0   ---   0.00   0.0   ---   14.7   14.4   14.4  1018.4  0.00  0.00   0.013   0.000   22.2    51   11.5   21.7   9.41  .0740    117    1    100.0    5 
21/05/19  20:35   14.6   14.7   14.6    75   10.2   0.0   ---   0.00   0.0   ---   14.6   14.3   14.3  1018.4  0.00  0.00   0.013   0.000   22.2    51   11.6   21.8   9.41  .0740    116    1    100.0    5 
21/05/19  20:40   14.6   14.6   14.6    75   10.2   1.0   WSW   0.08   3.0   WSW   14.6   14.3   14.3  1018.5  0.00  0.00   0.013   0.000   22.2    50   11.3   21.7   9.25  .0740    117    1    100.0    5 
21/05/19  20:45   14.5   14.6   14.5    74    9.9   0.0   WSW   0.00   1.0   WSW   14.5   14.2   14.2  1018.6  0.00  0.00   0.013   0.000   22.3    50   11.4   21.8   9.25  .0740    117    1    100.0    5 
21/05/19  20:50   14.4   14.5   14.4    74    9.9   0.0   WSW   0.00   1.0   WSW   14.4   14.1   14.1  1018.5  0.00  0.00   0.014   0.000   22.3    50   11.4   21.9   9.25  .0740    117    1    100.0    5 
21/05/19  20:55   14.3   14.4   14.3    74    9.8   0.0   ---   0.00   0.0   ---   14.3   14.0   14.0  1018.5  0.00  0.00   0.014   0.000   22.3    50   11.4   21.9   9.25  .0740    117    1    100.0    5 
21/05/19  21:00   14.2   14.3   14.2    74    9.7   0.0   ---   0.00   0.0   ---   14.2   13.9   13.9  1018.5  0.00  0.00   0.014   0.000   22.4    50   11.5   21.9   9.25  .0740    118    1    100.0    5 
21/05/19  21:05   14.2   14.2   14.2    74    9.6   0.0   ---   0.00   0.0   ---   14.2   13.8   13.8  1018.5  0.00  0.00   0.014   0.000   22.4    49   11.1   21.9   9.05  .0740    116    1    100.0    5 
21/05/19  21:10   14.1   14.2   14.1    75    9.7   0.0   ---   0.00   0.0   ---   14.1   13.8   13.8  1018.5  0.00  0.00   0.015   0.000   22.4    49   11.2   22.0   9.05  .0740    117    1    100.0    5 
21/05/19  21:15   14.0   14.1   14.0    74    9.4   0.0   ---   0.00   0.0   ---   14.0   13.7   13.7  1018.6  0.00  0.00   0.015   0.000   22.4    49   11.2   22.0   9.05  .0740    117    1    100.0    5 
21/05/19  21:20   13.9   14.0   13.9    74    9.4   0.0   WSW   0.00   2.0   WSW   13.9   13.6   13.6  1018.6  0.00  0.00   0.015   0.000   22.5    48   10.9   22.0   8.90  .0740    117    1    100.0    5 
21/05/19  21:25   13.8   13.9   13.8    74    9.3   0.0   WSW   0.00   2.0   WSW   13.8   13.5   13.5  1018.7  0.00  0.00   0.016   0.000   22.6    48   11.0   22.1   8.90  .0740    117    1    100.0    5 
21/05/19  21:30   13.8   13.8   13.8    73    9.0   0.0   WSW   0.00   1.0   WSW   13.8   13.4   13.4  1018.7  0.00  0.00   0.016   0.000   22.6    48   11.0   22.1   8.90  .0740    116    1    100.0    5 
21/05/19  21:35   13.7   13.8   13.7    73    9.0   0.0   ---   0.00   0.0   ---   13.7   13.4   13.4  1018.6  0.00  0.00   0.016   0.000   22.6    48   11.0   22.2   8.90  .0740    117    1    100.0    5 
21/05/19  21:40   13.6   13.7   13.6    73    8.9   0.0   WSW   0.00   1.0   WSW   13.6   13.2   13.2  1018.6  0.00  0.00   0.016   0.000   22.7    48   11.1   22.3   8.91  .0740    117    1    100.0    5 
21/05/19  21:45   13.6   13.6   13.6    73    8.8   0.0   ---   0.00   0.0   ---   13.6   13.2   13.2  1018.6  0.00  0.00   0.017   0.000   22.7    47   10.8   22.2   8.75  .0740    117    1    100.0    5 
21/05/19  21:50   13.5   13.6   13.5    73    8.8   0.0   ---   0.00   0.0   ---   13.5   13.1   13.1  1018.7  0.00  0.00   0.017   0.000   22.7    47   10.8   22.3   8.75  .0740    117    1    100.0    5 
21/05/19  21:55   13.4   13.5   13.4    73    8.7   0.0   ---   0.00   0.0   ---   13.4   13.1   13.1  1018.6  0.00  0.00   0.017   0.000   22.8    47   10.9   22.4   8.75  .0739    116    1    100.0    5 
21/05/19  22:00   13.3   13.4   13.3    73    8.6   0.0   ---   0.00   0.0   ---   13.3   12.9   12.9  1018.6  0.00  0.00   0.017   0.000   22.8    47   10.9   22.4   8.75  .0739    117    1    100.0    5 
21/05/19  22:05   13.2   13.3   13.2    73    8.5   0.0   ---   0.00   0.0   ---   13.2   12.8   12.8  1018.6  0.00  0.00   0.018   0.000   22.8    47   10.9   22.4   8.75  .0739    118    1    100.0    5 
21/05/19  22:10   13.1   13.2   13.1    74    8.6   0.0   ---   0.00   0.0   ---   13.1   12.8   12.8  1018.6  0.00  0.00   0.018   0.000   22.9    46   10.7   22.4   8.59  .0739    116    1    100.0    5 
21/05/19  22:15   12.9   13.1   12.9    74    8.4   0.0   ---   0.00   0.0   ---   12.9   12.6   12.6  1018.7  0.00  0.00   0.019   0.000   22.9    46   10.7   22.4   8.59  .0739    117    1    100.0    5 
21/05/19  22:20   12.9   13.0   12.9    74    8.4   0.0   ---   0.00   0.0   ---   12.9   12.6   12.6  1018.7  0.00  0.00   0.019   0.000   22.9    46   10.7   22.4   8.59  .0739    117    1    100.0    5 
21/05/19  22:25   12.8   12.9   12.8    74    8.3   0.0   ---   0.00   0.0   ---   12.8   12.4   12.4  1018.7  0.00  0.00   0.019   0.000   22.9    46   10.7   22.6   8.58  .0739    115    1    100.0    5 
21/05/19  22:30   12.7   12.8   12.7    74    8.2   0.0   ---   0.00   0.0   ---   12.7   12.4   12.4  1018.7  0.00  0.00   0.019   0.000   22.9    46   10.7   22.6   8.58  .0739    115    1    100.0    5 
21/05/19  22:35   12.7   12.7   12.7    74    8.1   0.0   ---   0.00   0.0   ---   12.7   12.3   12.3  1018.7  0.00  0.00   0.020   0.000   22.9    46   10.7   22.6   8.58  .0739    117    1    100.0    5 
21/05/19  22:40   12.6   12.7   12.6    74    8.1   0.0   ---   0.00   0.0   ---   12.6   12.3   12.3  1018.7  0.00  0.00   0.020   0.000   22.9    45   10.4   22.5   8.45  .0739    117    1    100.0    5 
21/05/19  22:45   12.5   12.6   12.5    74    8.0   0.0   ---   0.00   0.0   ---   12.5   12.2   12.2  1018.6  0.00  0.00   0.020   0.000   22.9    45   10.4   22.5   8.45  .0739    116    1    100.0    5 
21/05/19  22:50   12.4   12.6   12.4    74    7.9   0.0   ---   0.00   0.0   ---   12.4   12.2   12.2  1018.6  0.00  0.00   0.020   0.000   23.0    45   10.4   22.6   8.45  .0739    117    1    100.0    5 
21/05/19  22:55   12.3   12.4   12.3    74    7.8   0.0   ---   0.00   0.0   ---   12.3   12.1   12.1  1018.6  0.00  0.00   0.021   0.000   23.0    45   10.4   22.6   8.45  .0739    117    1    100.0    5 
21/05/19  23:00   12.3   12.3   12.3    74    7.8   0.0   ---   0.00   0.0   ---   12.3   12.0   12.0  1018.6  0.00  0.00   0.021   0.000   23.0    45   10.4   22.6   8.45  .0739    116    1    100.0    5 
21/05/19  23:05   12.2   12.3   12.2    75    7.9   0.0   ---   0.00   0.0   ---   12.2   11.9   11.9  1018.6  0.00  0.00   0.021   0.000   23.1    44   10.1   22.6   8.28  .0739    115    1    100.0    5 
21/05/19  23:10   12.1   12.2   12.1    75    7.8   0.0   ---   0.00   0.0   ---   12.1   11.8   11.8  1018.6  0.00  0.00   0.022   0.000   23.1    44   10.1   22.6   8.28  .0739    118    1    100.0    5 
21/05/19  23:15   12.1   12.2   12.1    75    7.8   0.0   ---   0.00   0.0   ---   12.1   11.8   11.8  1018.6  0.00  0.00   0.022   0.000   23.1    44   10.1   22.6   8.28  .0739    117    1    100.0    5 
21/05/19  23:20   12.0   12.1   12.0    75    7.7   0.0   WSW   0.00   3.0   WSW   12.0   11.7   11.7  1018.6  0.00  0.00   0.022   0.000   23.1    44   10.2   22.7   8.28  .0739    116    1    100.0    5 
21/05/19  23:25   12.1   12.1   12.0    75    7.8   1.0   WSW   0.08   3.0   WSW   12.1   11.8   11.8  1018.6  0.00  0.00   0.022   0.000   23.1    44   10.2   22.7   8.28  .0739    116    1    100.0    5 
21/05/19  23:30   12.1   12.1   12.0    75    7.8   0.0   ---   0.00   0.0   ---   12.1   11.8   11.8  1018.6  0.00  0.00   0.022   0.000   23.2    44   10.2   22.7   8.28  .0739    116    1    100.0    5 
21/05/19  23:35   12.1   12.1   12.1    75    7.8   0.0   WSW   0.00   3.0   WSW   12.1   11.8   11.8  1018.6  0.00  0.00   0.022   0.000   23.2    44   10.2   22.7   8.28  .0739    117    1    100.0    5 
21/05/19  23:40   12.2   12.2   12.1    75    7.9   0.0   WSW   0.00   2.0   WSW   12.2   11.9   11.9  1018.6  0.00  0.00   0.021   0.000   23.2    44   10.2   22.7   8.28  .0739    117    1    100.0    5 
21/05/19  23:45   12.2   12.2   12.2    75    7.9   0.0   WSW   0.00   4.0   WSW   12.2   11.9   11.9  1018.6  0.00  0.00   0.021   0.000   23.2    44   10.3   22.8   8.27  .0739    117    1    100.0    5 
21/05/19  23:50   12.3   12.3   12.2    74    7.8   0.0   WSW   0.00   4.0   WSW   12.3   12.0   12.0  1018.6  0.00  0.00   0.021   0.000   23.2    44   10.3   22.8   8.27  .0739    117    1    100.0    5 
21/05/19  23:55   12.3   12.3   12.3    74    7.8   0.0   ---   0.00   0.0   ---   12.3   12.1   12.1  1018.6  0.00  0.00   0.021   0.000   23.2    43    9.9   22.8   8.10  .0739    117    1    100.0    5 
22/05/19  00:00   12.4   12.4   12.3    74    7.9   0.0   ---   0.00   0.0   ---   12.4   12.1   12.1  1018.6  0.00  0.00   0.021   0.000   23.2    43    9.9   22.8   8.10  .0739    117    1    100.0    5 
22/05/19   0:05   12.4   12.4   12.4    74    7.9   0.0   ---   0.00   0.0   ---   12.4   12.1   12.1  1018.7  0.00  0.00   0.021   0.000   23.2    43    9.9   22.8   8.10  .0739    115    1    100.0    5 
22/05/19   0:10   12.4   12.4   12.4    74    7.9   0.0   ---   0.00   0.0   ---   12.4   12.1   12.1  1018.7  0.00  0.00   0.021   0.000   23.2    43    9.9   22.8   8.10  .0739    117    1    100.0    5 
22/05/19   0:15   12.4   12.4   12.4    74    7.9   0.0   ---   0.00   0.0   ---   12.4   12.1   12.1  1018.7  0.00  0.00   0.021   0.000   23.2    42    9.6   22.7   7.97  .0739    116    1    100.0    5 
22/05/19   0:20   12.4   12.4   12.4    73    7.7   0.0   ---   0.00   0.0   ---   12.4   12.1   12.1  1018.7  0.00  0.00   0.021   0.000   23.2    42    9.6   22.7   7.97  .0739    117    1    100.0    5 
22/05/19   0:25   12.4   12.4   12.4    73    7.7   0.0   ---   0.00   0.0   ---   12.4   12.1   12.1  1018.7  0.00  0.00   0.021   0.000   23.2    42    9.5   22.7   7.98  .0739    116    1    100.0    5 
22/05/19   0:30   12.4   12.4   12.4    73    7.7   0.0   ---   0.00   0.0   ---   12.4   12.1   12.1  1018.8  0.00  0.00   0.021   0.000   23.2    42    9.6   22.7   7.97  .0739    116    1    100.0    5 
22/05/19   0:35   12.4   12.4   12.4    73    7.7   0.0   ---   0.00   0.0   ---   12.4   12.1   12.1  1018.8  0.00  0.00   0.020   0.000   23.2    42    9.6   22.7   7.97  .0739    118    1    100.0    5 
22/05/19   0:40   12.4   12.4   12.4    74    7.9   0.0   ---   0.00   0.0   ---   12.4   12.2   12.2  1018.8  0.00  0.00   0.020   0.000   23.2    42    9.6   22.7   7.97  .0739    117    1    100.0    5 
22/05/19   0:45   12.5   12.5   12.4    74    8.0   0.0   WSW   0.00   1.0   WSW   12.5   12.2   12.2  1018.8  0.00  0.00   0.020   0.000   23.2    42    9.6   22.7   7.97  .0739    117    1    100.0    5 
22/05/19   0:50   12.5   12.5   12.5    74    8.0   0.0   ---   0.00   0.0   ---   12.5   12.2   12.2  1018.9  0.00  0.00   0.020   0.000   23.2    42    9.6   22.7   7.97  .0739    117    1    100.0    5 
22/05/19   0:55   12.5   12.6   12.5    74    8.0   0.0   WSW   0.00   1.0   WSW   12.5   12.2   12.2  1018.9  0.00  0.00   0.020   0.000   23.3    42    9.6   22.8   7.97  .0739    117    1    100.0    5 
22/05/19   1:00   12.6   12.6   12.5    74    8.0   0.0   ---   0.00   0.0   ---   12.6   12.2   12.2  1018.9  0.00  0.00   0.020   0.000   23.3    42    9.6   22.8   7.97  .0739    117    1    100.0    5 
22/05/19   1:05   12.6   12.6   12.6    74    8.1   0.0   ---   0.00   0.0   ---   12.6   12.3   12.3  1018.9  0.00  0.00   0.020   0.000   23.3    42    9.7   22.9   7.97  .0739    117    1    100.0    5 
22/05/19   1:10   12.6   12.6   12.6    74    8.1   0.0   ---   0.00   0.0   ---   12.6   12.3   12.3  1018.9  0.00  0.00   0.020   0.000   23.3    42    9.7   22.9   7.97  .0739    117    1    100.0    5 
22/05/19   1:15   12.6   12.6   12.6    73    7.9   0.0   ---   0.00   0.0   ---   12.6   12.3   12.3  1019.0  0.00  0.00   0.020   0.000   23.3    42    9.7   22.9   7.97  .0739    116    1    100.0    5 
22/05/19   1:20   12.6   12.6   12.6    73    7.9   0.0   ---   0.00   0.0   ---   12.6   12.3   12.3  1018.9  0.00  0.00   0.020   0.000   23.3    42    9.7   22.9   7.97  .0739    117    1    100.0    5 
22/05/19   1:25   12.6   12.6   12.6    73    7.9   0.0   ---   0.00   0.0   ---   12.6   12.3   12.3  1019.0  0.00  0.00   0.020   0.000   23.3    42    9.7   22.9   7.97  .0739    117    1    100.0    5 
22/05/19   1:30   12.6   12.6   12.6    73    7.8   0.0   ---   0.00   0.0   ---   12.6   12.2   12.2  1019.0  0.00  0.00   0.020   0.000   23.3    42    9.7   22.9   7.97  .0739    117    1    100.0    5 
22/05/19   1:35   12.6   12.6   12.6    73    7.8   0.0   ---   0.00   0.0   ---   12.6   12.2   12.2  1018.9  0.00  0.00   0.020   0.000   23.4    42    9.7   22.9   7.97  .0739    117    1    100.0    5 
22/05/19   1:40   12.6   12.6   12.6    73    7.8   0.0   ---   0.00   0.0   ---   12.6   12.2   12.2  1018.9  0.00  0.00   0.020   0.000   23.4    42    9.7   22.9   7.97  .0739    118    1    100.0    5 
22/05/19   1:45   12.5   12.6   12.5    73    7.8   0.0   WSW   0.00   1.0   WSW   12.5   12.2   12.2  1018.9  0.00  0.00   0.020   0.000   23.3    42    9.7   22.9   7.97  .0739    117    1    100.0    5 
22/05/19   1:50   12.5   12.5   12.5    74    8.0   0.0   WSW   0.00   3.0   WSW   12.5   12.2   12.2  1018.9  0.00  0.00   0.020   0.000   23.3    41    9.3   22.9   7.79  .0739    117    1    100.0    5 
22/05/19   1:55   12.4   12.5   12.4    74    7.9   1.0   WSW   0.08   4.0   WSW   12.4   12.2   12.2  1018.8  0.00  0.00   0.020   0.000   23.3    41    9.3   22.9   7.79  .0739    117    1    100.0    5 
22/05/19   2:00   12.4   12.5   12.4    73    7.7   1.0   WSW   0.08   5.0   WSW   12.4   12.1   12.1  1018.8  0.00  0.00   0.020   0.000   23.3    41    9.3   22.9   7.79  .0739    117    1    100.0    5 
22/05/19   2:05   12.5   12.5   12.4    73    7.8   2.0   WSW   0.17   5.0   WSW   12.5   12.2   12.2  1018.8  0.00  0.00   0.020   0.000   23.3    41    9.3   22.8   7.79  .0739    117    1    100.0    5 
22/05/19   2:10   12.5   12.5   12.5    73    7.8   2.0   WSW   0.17   5.0   WSW   12.5   12.2   12.2  1018.8  0.00  0.00   0.020   0.000   23.3    41    9.3   22.9   7.79  .0739    117    1    100.0    5 
22/05/19   2:15   12.6   12.6   12.5    73    7.8   2.0     W   0.17   6.0     W   12.6   12.2   12.2  1018.8  0.00  0.00   0.020   0.000   23.3    41    9.3   22.9   7.79  .0739    117    1    100.0    5 
22/05/19   2:20   12.6   12.6   12.6    73    7.8   2.0     W   0.17   4.0     W   12.6   12.2   12.2  1018.8  0.00  0.00   0.020   0.000   23.3    41    9.3   22.9   7.79  .0739    117    1    100.0    5 
22/05/19   2:25   12.6   12.6   12.6    73    7.8   2.0     W   0.17   5.0     W   12.6   12.2   12.2  1018.8  0.00  0.00   0.020   0.000   23.3    41    9.3   22.9   7.79  .0739    117    1    100.0    5 
22/05/19   2:30   12.6   12.6   12.6    72    7.6   2.0     W   0.17   6.0     W   12.6   12.2   12.2  1018.8  0.00  0.00   0.020   0.000   23.4    41    9.4   22.9   7.79  .0739    116    1    100.0    5 
22/05/19   2:35   12.6   12.6   12.6    72    7.6   1.0     W   0.08   4.0     W   12.6   12.2   12.2  1018.8  0.00  0.00   0.020   0.000   23.4    41    9.4   22.9   7.79  .0739    117    1    100.0    5 
22/05/19   2:40   12.5   12.6   12.5    73    7.8   1.0     W   0.08   4.0     W   12.5   12.2   12.2  1018.8  0.00  0.00   0.020   0.000   23.4    41    9.4   22.9   7.79  .0739    117    1    100.0    5 
22/05/19   2:45   12.4   12.5   12.4    73    7.7   1.0     W   0.08   4.0     W   12.4   12.1   12.1  1018.8  0.00  0.00   0.020   0.000   23.4    41    9.4   23.0   7.78  .0739    116    1    100.0    5 
22/05/19   2:50   12.4   12.5   12.4    73    7.7   2.0     W   0.17   5.0     W   12.4   12.1   12.1  1018.8  0.00  0.00   0.020   0.000   23.4    41    9.4   22.9   7.79  .0739    116    1    100.0    5 
22/05/19   2:55   12.4   12.4   12.4    72    7.5   2.0     W   0.17   6.0     W   12.4   12.1   12.1  1018.8  0.00  0.00   0.020   0.000   23.4    41    9.4   22.9   7.79  .0739    116    1    100.0    5 
22/05/19   3:00   12.4   12.4   12.4    72    7.5   2.0     W   0.17   6.0     W   12.4   12.1   12.1  1018.8  0.00  0.00   0.021   0.000   23.4    41    9.4   23.0   7.78  .0739    117    1    100.0    5 
22/05/19   3:05   12.4   12.4   12.4    72    7.5   2.0     W   0.17   5.0     W   12.4   12.1   12.1  1018.7  0.00  0.00   0.021   0.000   23.4    40    9.0   22.9   7.67  .0739    117    1    100.0    5 
22/05/19   3:10   12.4   12.4   12.4    72    7.5   1.0     W   0.08   5.0     W   12.4   12.1   12.1  1018.7  0.00  0.00   0.021   0.000   23.4    40    9.0   22.9   7.67  .0739    117    1    100.0    5 
22/05/19   3:15   12.3   12.4   12.3    72    7.4   1.0     W   0.08   4.0     W   12.3   12.0   12.0  1018.7  0.00  0.00   0.021   0.000   23.4    40    9.0   22.9   7.67  .0739    117    1    100.0    5 
22/05/19   3:20   12.3   12.3   12.3    72    7.4   0.0     W   0.00   3.0     W   12.3   11.9   11.9  1018.8  0.00  0.00   0.021   0.000   23.3    40    9.0   22.8   7.67  .0739    117    1    100.0    5 
22/05/19   3:25   12.2   12.3   12.2    72    7.3   1.0     W   0.08   4.0     W   12.2   11.9   11.9  1018.7  0.00  0.00   0.021   0.000   23.3    40    9.0   22.8   7.67  .0739    117    1    100.0    5 
22/05/19   3:30   12.2   12.2   12.2    72    7.3   0.0     W   0.00   3.0     W   12.2   11.8   11.8  1018.7  0.00  0.00   0.021   0.000   23.3    40    9.0   22.8   7.67  .0739    117    1    100.0    5 
22/05/19   3:35   12.1   12.2   12.1    72    7.2   1.0     W   0.08   3.0     W   12.1   11.8   11.8  1018.8  0.00  0.00   0.022   0.000   23.3    40    9.0   22.8   7.67  .0739    116    1    100.0    5 
22/05/19   3:40   12.1   12.1   12.1    72    7.2   1.0     W   0.08   4.0     W   12.1   11.7   11.7  1018.7  0.00  0.00   0.022   0.000   23.3    40    9.0   22.8   7.67  .0739    117    1    100.0    5 
22/05/19   3:45   12.1   12.1   12.1    72    7.2   2.0   WNW   0.17   5.0     W   12.1   11.7   11.7  1018.7  0.00  0.00   0.022   0.000   23.3    40    9.0   22.8   7.67  .0739    118    1    100.0    5 
22/05/19   3:50   12.1   12.1   12.1    72    7.2   1.0   WNW   0.08   5.0   WNW   12.1   11.7   11.7  1018.7  0.00  0.00   0.022   0.000   23.3    40    9.0   22.8   7.67  .0739    116    1    100.0    5 
22/05/19   3:55   12.1   12.1   12.1    72    7.2   1.0   WNW   0.08   3.0   WNW   12.1   11.7   11.7  1018.7  0.00  0.00   0.022   0.000   23.3    40    9.0   22.8   7.67  .0739    117    1    100.0    5 
22/05/19   4:00   12.1   12.1   12.1    71    7.0   1.0   WNW   0.08   4.0   WNW   12.1   11.7   11.7  1018.7  0.00  0.00   0.022   0.000   23.4    40    9.0   22.9   7.67  .0739    116    1    100.0    5 
22/05/19   4:05   12.1   12.1   12.1    71    7.0   0.0   WNW   0.00   3.0   WNW   12.1   11.7   11.7  1018.8  0.00  0.00   0.022   0.000   23.4    40    9.0   22.9   7.67  .0739    117    1    100.0    5 
22/05/19   4:10   12.1   12.1   12.1    71    7.0   1.0   WNW   0.08   4.0   WNW   12.1   11.7   11.7  1018.8  0.00  0.00   0.022   0.000   23.4    39    8.6   22.8   7.57  .0739    117    1    100.0    5 
22/05/19   4:15   12.1   12.1   12.1    71    7.0   1.0   WNW   0.08   3.0   WNW   12.1   11.7   11.7  1018.7  0.00  0.00   0.022   0.000   23.4    39    8.6   22.8   7.57  .0739    117    1    100.0    5 
22/05/19   4:20   12.1   12.1   12.1    70    6.7   1.0   WNW   0.08   4.0   WNW   12.1   11.7   11.7  1018.7  0.00  0.00   0.022   0.000   23.4    39    8.6   22.8   7.57  .0739    115    1    100.0    5 
22/05/19   4:25   12.1   12.1   12.1    70    6.7   1.0   WNW   0.08   4.0   WNW   12.1   11.7   11.7  1018.7  0.00  0.00   0.022   0.000   23.4    39    8.6   22.8   7.57  .0739    117    1    100.0    5 
22/05/19   4:30   12.1   12.1   12.0    70    6.7   1.0    NW   0.08   4.0    NW   12.1   11.7   11.7  1018.7  0.00  0.00   0.022   0.000   23.4    39    8.6   22.8   7.57  .0739    116    1    100.0    5 
22/05/19   4:35   12.1   12.1   12.1    70    6.7   1.0    NW   0.08   4.0    NW   12.1   11.7   11.7  1018.8  0.00  0.00   0.022   0.000   23.3    39    8.6   22.8   7.57  .0739    117    1    100.0    5 
22/05/19   4:40   12.1   12.1   12.1    69    6.6   2.0    NW   0.17   5.0    NW   12.1   11.7   11.7  1018.7  0.00  0.00   0.022   0.000   23.3    38    8.2   22.7   7.39  .0740    117    1    100.0    5 
22/05/19   4:45   12.2   12.2   12.1    69    6.6   2.0    NW   0.17   5.0    NW   12.2   11.7   11.7  1018.8  0.00  0.00   0.021   0.000   23.3    38    8.2   22.7   7.39  .0740    116    1    100.0    5 
22/05/19   4:50   12.2   12.2   12.2    70    6.9   1.0    NW   0.08   4.0    NW   12.2   11.8   11.8  1018.7  0.00  0.00   0.021   0.000   23.3    38    8.2   22.7   7.39  .0740    116    1    100.0    5 
22/05/19   4:55   12.3   12.3   12.2    69    6.8   2.0    NW   0.17   6.0    NW   12.3   11.8   11.8  1018.8  0.00  0.00   0.021   0.000   23.3    38    8.2   22.7   7.39  .0740    117    1    100.0    5 
22/05/19   5:00   12.3   12.3   12.3    69    6.8   2.0    NW   0.17   5.0    NW   12.3   11.9   11.9  1018.9  0.00  0.00   0.021   0.000   23.3    38    8.2   22.7   7.39  .0740    116    1    100.0    5 
22/05/19   5:05   12.4   12.4   12.3    68    6.6   1.0    NW   0.08   5.0    NW   12.4   11.9   11.9  1018.9  0.00  0.00   0.021   0.000   23.3    38    8.2   22.7   7.39  .0740    115    1    100.0    5 
22/05/19   5:10   12.5   12.5   12.4    68    6.8   1.0    NW   0.08   5.0    NW   12.5   12.1   12.1  1018.9  0.00  0.00   0.020   0.000   23.3    38    8.2   22.7   7.39  .0740    116    1    100.0    5 
22/05/19   5:15   12.6   12.6   12.5    68    6.8   1.0    NW   0.08   5.0    NW   12.6   12.1   12.1  1019.0  0.00  0.00   0.020   0.000   23.3    38    8.2   22.7   7.39  .0740    116    1    100.0    5 
22/05/19   5:20   12.7   12.7   12.6    68    6.9   1.0    NW   0.08   4.0    NW   12.7   12.2   12.2  1019.0  0.00  0.00   0.020   0.000   23.4    37    7.9   22.8   7.27  .0740    116    1    100.0    5 
22/05/19   5:25   12.7   12.7   12.7    68    7.0   0.0    NW   0.00   2.0    NW   12.7   12.2   12.2  1019.0  0.00  0.00   0.019   0.000   23.6    37    8.1   23.0   7.26  .0739    117    1    100.0    5 
22/05/19   5:30   12.8   12.8   12.7    67    6.8   0.0    NW   0.00   1.0    NW   12.8   12.3   12.3  1019.1  0.00  0.00   0.019   0.000   24.1    36    8.1   23.4   7.04  .0738    117    1    100.0    5 
22/05/19   5:35   12.9   12.9   12.8    68    7.1   1.0   NNW   0.08   5.0    NW   12.9   12.4   12.4  1019.0  0.00  0.00   0.019   0.000   24.3    35    7.8   23.6   6.94  .0738    117    1    100.0    5 
22/05/19   5:40   13.0   13.0   12.9    67    7.0   0.0   NNW   0.00   4.0   NNW   13.0   12.5   12.5  1019.1  0.00  0.00   0.019   0.000   24.4    35    7.9   23.7   6.93  .0737    117    1    100.0    5 
22/05/19   5:45   13.1   13.1   13.0    66    6.9   2.0   NNW   0.17   5.0   NNW   13.1   12.6   12.6  1019.0  0.00  0.00   0.018   0.000   24.3    35    7.9   23.7   6.93  .0738    115    1    100.0    5 
22/05/19   5:50   13.2   13.2   13.1    65    6.7   2.0   NNW   0.17   6.0     N   13.2   12.6   12.6  1019.0  0.00  0.00   0.018   0.000   24.3    35    7.8   23.6   6.94  .0738    117    1    100.0    5 
22/05/19   5:55   13.3   13.3   13.2    65    6.8   1.0     N   0.08   5.0     N   13.3   12.7   12.7  1019.1  0.00  0.00   0.018   0.000   24.3    35    7.8   23.6   6.94  .0738    118    1    100.0    5 
22/05/19   6:00   13.4   13.4   13.3    65    6.9   0.0     N   0.00   5.0     N   13.4   12.8   12.8  1019.0  0.00  0.00   0.017   0.000   24.2    35    7.8   23.6   6.94  .0738    117    1    100.0    5 
22/05/19   6:05   13.5   13.5   13.4    65    7.0   0.0   ---   0.00   0.0   ---   13.5   12.9   12.9  1019.2  0.00  0.00   0.017   0.000   24.2    35    7.7   23.5   6.94  .0738    117    1    100.0    5 
22/05/19   6:10   13.7   13.7   13.5    65    7.2   0.0     N   0.00   6.0     N   13.7   13.1   13.1  1019.3  0.00  0.00   0.016   0.000   24.2    35    7.8   23.6   6.94  .0738    117    1    100.0    5 
22/05/19   6:15   13.7   13.7   13.7    62    6.6   1.0     N   0.08   4.0     N   13.7   13.1   13.1  1019.3  0.00  0.00   0.016   0.000   24.2    35    7.8   23.6   6.94  .0738    117    1    100.0    5 
22/05/19   6:20   13.8   13.8   13.7    61    6.4   1.0     N   0.08   3.0     N   13.8   13.2   13.2  1019.3  0.00  0.00   0.016   0.000   24.3    35    7.8   23.6   6.94  .0738    116    1    100.0    5 
22/05/19   6:25   13.9   13.9   13.8    61    6.5   0.0     N   0.00   3.0     N   13.9   13.3   13.3  1019.3  0.00  0.00   0.015   0.000   24.4    35    7.9   23.7   6.93  .0738    117    1    100.0    5 
22/05/19   6:30   14.1   14.1   13.9    61    6.6   0.0     N   0.00   3.0     N   14.1   13.4   13.4  1019.4  0.00  0.00   0.015   0.000   24.4    35    8.0   23.8   6.93  .0738    117    1    100.0    5 
22/05/19   6:35   14.3   14.3   14.1    60    6.6   1.0     N   0.08   4.0     N   14.3   13.6   13.6  1019.3  0.00  0.00   0.014   0.000   24.5    34    7.6   23.8   6.73  .0738    116    1    100.0    5 
22/05/19   6:40   14.4   14.4   14.3    59    6.5   1.0     N   0.08   4.0     N   14.4   13.6   13.6  1019.3  0.00  0.00   0.014   0.000   24.6    34    7.7   23.9   6.73  .0737    117    1    100.0    5 
22/05/19   6:45   14.7   14.7   14.4    60    7.0   0.0     N   0.00   3.0     N   14.7   14.0   14.0  1019.3  0.00  0.00   0.013   0.000   24.6    34    7.7   23.9   6.73  .0737    117    1    100.0    5 
22/05/19   6:50   15.1   15.1   14.7    59    7.2   1.0     N   0.08   4.0     N   15.1   14.3   14.3  1019.4  0.00  0.00   0.011   0.000   24.6    34    7.7   23.9   6.73  .0737    117    1    100.0    5 
22/05/19   6:55   15.4   15.4   15.2    56    6.7   0.0   ---   0.00   0.0   ---   15.4   14.6   14.6  1019.4  0.00  0.00   0.010   0.000   24.6    34    7.7   23.9   6.72  .0737    117    1    100.0    5 
22/05/19   7:00   15.7   15.7   15.4    56    7.0   1.0     N   0.08   4.0     N   15.7   14.9   14.9  1019.4  0.00  0.00   0.009   0.000   24.6    33    7.3   23.9   6.55  .0737    118    1    100.0    5 
22/05/19   7:05   16.0   16.0   15.7    58    7.7   1.0   NNE   0.08   5.0   NNE   16.0   15.2   15.2  1019.4  0.00  0.00   0.008   0.000   24.6    33    7.3   23.9   6.55  .0737    116    1    100.0    5 
22/05/19   7:10   16.3   16.3   16.0    60    8.5   1.0   NNE   0.08   5.0   NNE   16.3   15.6   15.6  1019.4  0.00  0.00   0.007   0.000   24.6    33    7.3   23.9   6.55  .0737    116    1    100.0    5 
22/05/19   7:15   16.4   16.4   16.3    58    8.2   0.0   NNE   0.00   3.0   NNE   16.4   15.7   15.7  1019.4  0.00  0.00   0.007   0.000   24.6    34    7.7   23.9   6.73  .0737    117    1    100.0    5 
22/05/19   7:20   16.7   16.7   16.5    57    8.2   1.0   NNE   0.08   3.0   NNE   16.7   15.9   15.9  1019.4  0.00  0.00   0.006   0.000   24.6    34    7.7   23.9   6.73  .0737    116    1    100.0    5 
22/05/19   7:25   16.9   16.9   16.7    54    7.5   1.0   NNE   0.08   5.0   NNE   16.9   16.1   16.1  1019.5  0.00  0.00   0.005   0.000   24.6    34    7.7   23.9   6.73  .0738    117    1    100.0    5 
22/05/19   7:30   16.9   16.9   16.8    56    8.1   1.0   NNE   0.08   4.0   NNE   16.9   16.2   16.2  1019.5  0.00  0.00   0.005   0.000   24.6    34    7.7   23.9   6.73  .0738    117    1    100.0    5 
22/05/19   7:35   17.0   17.0   16.9    55    7.9   2.0   NNE   0.17   5.0   NNE   17.0   16.2   16.2  1019.6  0.00  0.00   0.005   0.000   24.5    34    7.6   23.8   6.73  .0738    117    1    100.0    5 
22/05/19   7:40   17.2   17.2   17.0    56    8.3   1.0   NNE   0.08   3.0   NNE   17.2   16.4   16.4  1019.6  0.00  0.00   0.004   0.000   24.5    34    7.6   23.8   6.73  .0738    117    1    100.0    5 
22/05/19   7:45   17.3   17.3   17.2    55    8.2   1.0   NNE   0.08   4.0   NNE   17.3   16.6   16.6  1019.6  0.00  0.00   0.003   0.000   24.5    34    7.6   23.8   6.73  .0738    117    1    100.0    5 
22/05/19   7:50   17.6   17.6   17.4    55    8.5   2.0   NNE   0.17   4.0   NNE   17.6   16.9   16.9  1019.7  0.00  0.00   0.003   0.000   24.5    34    7.6   23.8   6.73  .0738    109    1     95.6    5 
22/05/19   7:55   17.8   17.8   17.6    51    7.5   4.0    NE   0.33   5.0    NE   17.8   16.8   16.8  1019.6  0.00  0.00   0.002   0.000   24.6    34    7.7   23.9   6.72  .0737    115    1    100.0    5 
22/05/19   8:00   17.9   17.9   17.8    53    8.2   2.0    NE   0.17   4.0    NE   17.9   17.1   17.1  1019.7  0.00  0.00   0.001   0.000   24.7    34    7.8   24.1   6.72  .0737    118    1    100.0    5 
22/05/19   8:05   18.0   18.0   17.9    51    7.7   3.0    NE   0.25   4.0    NE   18.0   17.1   17.1  1019.7  0.00  0.00   0.001   0.000   24.9    34    7.9   24.3   6.71  .0737    117    1    100.0    5 
22/05/19   8:10   18.0   18.0   18.0    51    7.7   3.0    NE   0.25   4.0    NE   18.0   17.1   17.1  1019.7  0.00  0.00   0.001   0.000   25.0    34    8.0   24.4   6.71  .0736    117    1    100.0    5 
22/05/19   8:15   17.7   17.9   17.7    52    7.7   2.0    NE   0.17   4.0    NE   17.7   16.8   16.8  1019.8  0.00  0.00   0.002   0.000   24.9    34    8.0   24.3   6.71  .0737    116    1    100.0    5 
22/05/19   8:20   17.4   17.7   17.4    51    7.2   2.0    NE   0.17   3.0    NE   17.4   16.4   16.4  1019.8  0.00  0.00   0.003   0.000   24.9    34    8.0   24.3   6.71  .0737    117    1    100.0    5 
22/05/19   8:25   17.2   17.4   17.2    52    7.3   2.0    NE   0.17   4.0    NE   17.2   16.3   16.3  1019.7  0.00  0.00   0.004   0.000   24.9    34    8.0   24.3   6.71  .0737    115    1    100.0    5 
22/05/19   8:30   17.1   17.2   17.1    52    7.1   1.0    NE   0.08   3.0    NE   17.1   16.1   16.1  1019.8  0.00  0.00   0.004   0.000   24.9    34    8.0   24.3   6.71  .0737    117    1    100.0    5 
22/05/19   8:35   17.0   17.1   17.0    55    7.9   0.0    NE   0.00   2.0    NE   17.0   16.2   16.2  1019.7  0.00  0.00   0.005   0.000   25.1    34    8.1   24.4   6.71  .0736    117    1    100.0    5 
22/05/19   8:40   17.1   17.1   17.0    58    8.8   0.0    NE   0.00   2.0    NE   17.1   16.4   16.4  1019.8  0.00  0.00   0.004   0.000   25.1    37    9.4   24.6   7.21  .0735    117    1    100.0    5 
22/05/19   8:45   17.3   17.3   17.2    56    8.4   0.0    NE   0.00   2.0    NE   17.3   16.6   16.6  1019.8  0.00  0.00   0.004   0.000   25.2    39   10.3   24.7   7.50  .0735    117    1    100.0    5 
22/05/19   8:50   17.2   17.3   17.2    56    8.4   1.0    NE   0.08   3.0    NE   17.2   16.5   16.5  1019.9  0.00  0.00   0.004   0.000   25.3    38   10.0   24.8   7.30  .0735    117    1    100.0    5 
22/05/19   8:55   17.3   17.3   17.2    59    9.2   3.0    NE   0.25   6.0   ENE   17.3   16.7   16.7  1020.0  0.00  0.00   0.003   0.000   25.4    38   10.0   24.8   7.30  .0734    116    1    100.0    5 
22/05/19   9:00   17.3   17.3   17.3    59    9.2   3.0     E   0.25   5.0     E   17.3   16.7   16.7  1019.8  0.00  0.00   0.004   0.000   25.5    38   10.1   24.9   7.29  .0734    117    1    100.0    5 
22/05/19   9:05   17.3   17.3   17.3    60    9.5   3.0     E   0.25   5.0     E   17.3   16.7   16.7  1019.9  0.00  0.00   0.003   0.000   25.5    38   10.1   24.9   7.29  .0734    118    1    100.0    5 
22/05/19   9:10   17.5   17.5   17.4    61    9.9   3.0   ESE   0.25   5.0     E   17.5   17.0   17.0  1019.9  0.00  0.00   0.003   0.000   25.6    38   10.2   24.9   7.29  .0734    116    1    100.0    5 
22/05/19   9:15   17.6   17.6   17.5    61   10.0   3.0   ESE   0.25   4.0   ESE   17.6   17.1   17.1  1020.0  0.00  0.00   0.003   0.000   25.6    38   10.2   24.9   7.29  .0734    117    1    100.0    5 
22/05/19   9:20   17.6   17.6   17.6    61    9.9   3.0   ESE   0.25   4.0   ESE   17.6   17.1   17.1  1020.0  0.00  0.00   0.003   0.000   25.6    38   10.2   24.9   7.29  .0734    117    1    100.0    5 
22/05/19   9:25   17.4   17.6   17.4    62   10.0   3.0   ESE   0.25   4.0   ESE   17.4   16.9   16.9  1020.1  0.00  0.00   0.003   0.000   25.6    39   10.6   25.1   7.49  .0734    117    1    100.0    5 
22/05/19   9:30   17.3   17.4   17.3    62    9.9   3.0   ESE   0.25   4.0   ESE   17.3   16.8   16.8  1020.0  0.00  0.00   0.004   0.000   25.6    39   10.6   25.1   7.49  .0734    115    1    100.0    5 
22/05/19   9:35   17.3   17.3   17.3    64   10.5   3.0   ESE   0.25   5.0   ESE   17.3   16.9   16.9  1020.1  0.00  0.00   0.003   0.000   25.6    39   10.6   25.1   7.49  .0734    117    1    100.0    5 
22/05/19   9:40   17.3   17.3   17.3    63   10.2   4.0   ESE   0.33   5.0   ESE   17.3   16.8   16.8  1020.0  0.00  0.00   0.004   0.000   25.7    39   10.7   25.1   7.49  .0733    117    1    100.0    5 
22/05/19   9:45   17.3   17.3   17.3    63   10.2   3.0   ESE   0.25   5.0   ESE   17.3   16.8   16.8  1020.0  0.00  0.00   0.004   0.000   25.7    39   10.7   25.1   7.49  .0733    117    1    100.0    5 
22/05/19   9:50   17.2   17.3   17.2    61    9.6   4.0   ESE   0.33   5.0   ESE   17.2   16.7   16.7  1020.0  0.00  0.00   0.004   0.000   25.7    39   10.7   25.2   7.48  .0733    116    1    100.0    5 
22/05/19   9:55   17.1   17.2   17.1    62    9.7   4.0   ESE   0.33   6.0   ESE   17.1   16.6   16.6  1020.0  0.00  0.00   0.004   0.000   25.7    39   10.7   25.2   7.48  .0733    117    1    100.0    5 
22/05/19  10:00   16.9   17.1   16.9    63    9.8   5.0    SE   0.42   7.0    SE   16.9   16.5   16.5  1020.0  0.00  0.00   0.005   0.000   25.7    39   10.7   25.2   7.48  .0733    117    1    100.0    5 
22/05/19  10:05   16.8   16.9   16.8    62    9.5   5.0   SSE   0.42   7.0   SSE   16.8   16.3   16.3  1019.9  0.00  0.00   0.005   0.000   25.8    39   10.8   25.3   7.48  .0733    118    1    100.0    5 
22/05/19  10:10   16.8   16.8   16.8    65   10.2   5.0   SSE   0.42   6.0   SSE   16.8   16.4   16.4  1019.9  0.00  0.00   0.005   0.000   25.7    39   10.7   25.2   7.48  .0733    117    1    100.0    5 
22/05/19  10:15   16.7   16.8   16.7    64    9.8   5.0   SSE   0.42   7.0   SSE   16.7   16.2   16.2  1019.9  0.00  0.00   0.006   0.000   25.8    39   10.8   25.3   7.48  .0733    116    1    100.0    5 
22/05/19  10:20   16.6   16.7   16.6    65    9.9   5.0   SSE   0.42   7.0   SSE   16.6   16.2   16.2  1020.0  0.00  0.00   0.006   0.000   25.8    39   10.8   25.3   7.48  .0733    117    1    100.0    5 
22/05/19  10:25   16.5   16.6   16.5    63    9.4   5.0   SSE   0.42   7.0   SSE   16.5   16.0   16.0  1020.0  0.00  0.00   0.006   0.000   25.8    39   10.8   25.3   7.48  .0733    117    1    100.0    5 
22/05/19  10:30   16.5   16.6   16.5    66   10.1   5.0   SSE   0.42   7.0   SSE   16.5   16.1   16.1  1020.1  0.00  0.00   0.006   0.000   25.9    39   10.9   25.4   7.48  .0733    114    1    100.0    5 
22/05/19  10:35   16.3   16.4   16.3    67   10.2   5.0     S   0.42   7.0     S   16.3   15.9   15.9  1020.1  0.00  0.00   0.007   0.000   25.9    39   10.9   25.4   7.48  .0733    117    1    100.0    5 
22/05/19  10:40   16.2   16.3   16.2    68   10.3   4.0     S   0.33   7.0     S   16.2   15.8   15.8  1020.1  0.00  0.00   0.008   0.000   25.9    39   10.9   25.4   7.48  .0733    117    1    100.0    5 
22/05/19  10:45   15.9   16.2   15.9    68   10.0   5.0     S   0.42   7.0     S   15.9   15.6   15.6  1020.1  0.00  0.00   0.008   0.000   25.9    40   11.3   25.5   7.58  .0732    117    1    100.0    5 
22/05/19  10:50   15.8   15.9   15.8    67    9.7   4.0     S   0.33   6.0     S   15.8   15.4   15.4  1020.1  0.00  0.00   0.009   0.000   26.0    40   11.4   25.6   7.57  .0732    117    1    100.0    5 
22/05/19  10:55   15.8   15.8   15.8    67    9.7   4.0     S   0.33   6.0     S   15.8   15.4   15.4  1020.0  0.00  0.00   0.009   0.000   26.0    39   11.0   25.5   7.47  .0732    116    1    100.0    5 
22/05/19  11:00   15.9   15.9   15.8    67    9.8   3.0     S   0.25   4.0     S   15.9   15.6   15.6  1020.0  0.00  0.00   0.008   0.000   26.0    39   11.0   25.5   7.47  .0732    117    1    100.0    5 
22/05/19  11:05   16.2   16.2   15.9    68   10.3   2.0     S   0.17   4.0     S   16.2   15.8   15.8  1020.0  0.00  0.00   0.008   0.000   26.1    39   11.0   25.6   7.47  .0732    117    1    100.0    5 
22/05/19  11:10   16.3   16.3   16.2    66   10.0   2.0     S   0.17   3.0     S   16.3   15.9   15.9  1020.0  0.00  0.00   0.007   0.000   26.1    39   11.1   25.6   7.47  .0732    118    1    100.0    5 
22/05/19  11:15   16.5   16.5   16.3    67   10.3   2.0     S   0.17   4.0     S   16.5   16.2   16.2  1020.1  0.00  0.00   0.006   0.000   26.1    39   11.1   25.6   7.47  .0732    117    1    100.0    5 
22/05/19  11:20   16.6   16.6   16.5    64    9.8   2.0     S   0.17   4.0     S   16.6   16.2   16.2  1020.1  0.00  0.00   0.006   0.000   26.1    39   11.1   25.6   7.47  .0732    115    1    100.0    5 
22/05/19  11:25   16.6   16.6   16.6    66   10.2   2.0     S   0.17   3.0     S   16.6   16.2   16.2  1020.2  0.00  0.00   0.006   0.000   26.2    39   11.1   25.7   7.47  .0732    117    1    100.0    5 
22/05/19  11:30   16.5   16.6   16.5    64    9.7   2.0     S   0.17   4.0     S   16.5   16.1   16.1  1020.1  0.00  0.00   0.006   0.000   26.2    39   11.1   25.7   7.47  .0732    117    1    100.0    5 
22/05/19  11:35   16.5   16.5   16.4    63    9.4   2.0     S   0.17   4.0     S   16.5   16.0   16.0  1020.1  0.00  0.00   0.006   0.000   26.2    39   11.1   25.7   7.47  .0732    117    1    100.0    5 
22/05/19  11:40   16.6   16.6   16.5    65   10.0   2.0     S   0.17   4.0     S   16.6   16.2   16.2  1020.0  0.00  0.00   0.006   0.000   26.2    39   11.2   25.7   7.47  .0732    117    1    100.0    5 
22/05/19  11:45   16.5   16.6   16.5    63    9.4   3.0     S   0.25   5.0     S   16.5   16.0   16.0  1020.1  0.00  0.00   0.006   0.000   26.2    39   11.2   25.7   7.47  .0732    117    1    100.0    5 
22/05/19  11:50   16.4   16.5   16.4    65    9.8   2.0     S   0.17   4.0     S   16.4   16.1   16.1  1020.1  0.00  0.00   0.007   0.000   26.3    39   11.2   25.8   7.46  .0732    116    1    100.0    5 
22/05/19  11:55   16.5   16.5   16.4    66   10.1   2.0     S   0.17   4.0     S   16.5   16.1   16.1  1020.0  0.00  0.00   0.006   0.000   26.3    38   10.8   25.7   7.26  .0732    117    1    100.0    5 
22/05/19  12:00   16.4   16.5   16.4    65    9.8   3.0     S   0.25   5.0     S   16.4   16.0   16.0  1020.0  0.00  0.00   0.007   0.000   26.3    38   10.9   25.7   7.26  .0732    116    1    100.0    5 
22/05/19  12:05   16.3   16.4   16.3    66    9.9   3.0     S   0.25   4.0     S   16.3   15.9   15.9  1020.0  0.00  0.00   0.007   0.000   26.3    38   10.9   25.7   7.26  .0732    117    1    100.0    5 
22/05/19  12:10   16.2   16.3   16.2    66    9.8   2.0     S   0.17   5.0     S   16.2   15.7   15.7  1020.1  0.00  0.00   0.008   0.000   26.3    39   11.3   25.8   7.46  .0731    117    1    100.0    5 
22/05/19  12:15   16.2   16.2   16.2    68   10.3   2.0     S   0.17   4.0     S   16.2   15.8   15.8  1020.0  0.00  0.00   0.008   0.000   26.3    39   11.3   25.8   7.46  .0731    118    1    100.0    5 
22/05/19  12:20   16.2   16.2   16.2    68   10.3   3.0     S   0.25   5.0     S   16.2   15.8   15.8  1019.9  0.00  0.00   0.008   0.000   26.3    39   11.3   25.8   7.46  .0731    117    1    100.0    5 
22/05/19  12:25   16.0   16.2   16.0    69   10.3   3.0     S   0.25   5.0     S   16.0   15.7   15.7  1019.9  0.00  0.00   0.008   0.000   26.3    39   11.3   25.8   7.46  .0731    116    1    100.0    5 
22/05/19  12:30   16.0   16.0   15.9    71   10.7   2.0     S   0.17   5.0     S   16.0   15.7   15.7  1019.9  0.00  0.00   0.008   0.000   26.3    39   11.3   25.8   7.46  .0731    117    1    100.0    5 
22/05/19  12:35   16.1   16.1   16.0    71   10.8   3.0     S   0.25   6.0     S   16.1   15.8   15.8  1019.8  0.00  0.00   0.008   0.000   26.3    40   11.7   25.8   7.56  .0731    117    1    100.0    5 
22/05/19  12:40   15.9   16.1   15.9    71   10.7   2.0     S   0.17   4.0     S   15.9   15.7   15.7  1019.8  0.00  0.00   0.008   0.000   26.3    40   11.7   25.8   7.56  .0731    116    1    100.0    5 
22/05/19  12:45   15.9   16.0   15.9    72   10.8   2.0     S   0.17   5.0     S   15.9   15.6   15.6  1019.8  0.00  0.00   0.008   0.000   26.4    40   11.7   25.9   7.56  .0731    116    1    100.0    5 
22/05/19  12:50   15.8   15.9   15.8    72   10.7   2.0     S   0.17   4.0     S   15.8   15.5   15.5  1019.8  0.00  0.00   0.009   0.000   26.4    40   11.7   25.9   7.56  .0731    117    1    100.0    5 
22/05/19  12:55   15.7   15.8   15.7    72   10.7   2.0     S   0.17   4.0     S   15.7   15.4   15.4  1019.7  0.00  0.00   0.009   0.000   26.4    40   11.7   25.9   7.56  .0731    116    1    100.0    5 
22/05/19  13:00   15.7   15.7   15.7    72   10.6   0.0     S   0.00   2.0     S   15.7   15.4   15.4  1019.8  0.00  0.00   0.009   0.000   26.4    40   11.7   25.9   7.56  .0731    116    1    100.0    5 
22/05/19  13:05   16.0   16.0   15.7    73   11.2   1.0     S   0.08   3.0     S   16.0   15.8   15.8  1019.8  0.00  0.00   0.008   0.000   26.4    40   11.7   25.9   7.56  .0731    117    1    100.0    5 
22/05/19  13:10   16.3   16.3   16.1    70   10.8   1.0     S   0.08   4.0     S   16.3   16.0   16.0  1019.7  0.00  0.00   0.007   0.000   26.5    40   11.8   26.0   7.56  .0730    117    1    100.0    5 
22/05/19  13:15   16.8   16.8   16.3    70   11.3   1.0     S   0.08   4.0     S   16.8   16.5   16.5  1019.7  0.00  0.00   0.005   0.000   26.6    40   11.8   26.0   7.55  .0730    117    1    100.0    5 
22/05/19  13:20   17.2   17.2   16.8    67   11.0   1.0     S   0.08   3.0     S   17.2   16.9   16.9  1019.7  0.00  0.00   0.004   0.000   26.6    40   11.9   26.1   7.55  .0730    116    1    100.0    5 
22/05/19  13:25   17.4   17.4   17.2    65   10.8   1.0     S   0.08   3.0     S   17.4   17.1   17.1  1019.7  0.00  0.00   0.003   0.000   26.7    40   11.9   26.1   7.55  .0730    117    1    100.0    5 
22/05/19  13:30   17.8   17.8   17.4    63   10.6   1.0     S   0.08   3.0     S   17.8   17.4   17.4  1019.6  0.00  0.00   0.002   0.000   26.7    39   11.6   26.1   7.45  .0730    116    1    100.0    5 
22/05/19  13:35   18.1   18.1   17.8    63   11.0   1.0     S   0.08   4.0     S   18.1   17.8   17.8  1019.6  0.00  0.00   0.001   0.000   26.7    39   11.6   26.1   7.45  .0730    117    1    100.0    5 
22/05/19  13:40   18.3   18.3   18.1    61   10.6   2.0     S   0.17   4.0     S   18.3   17.9   17.9  1019.5  0.00  0.00   0.000   0.000   26.8    39   11.7   26.2   7.44  .0730    116    1    100.0    5 
22/05/19  13:45   18.4   18.4   18.3    62   11.0   2.0     S   0.17   4.0     S   18.4   18.1   18.1  1019.5  0.00  0.00   0.000   0.000   26.9    39   11.8   26.3   7.44  .0729    116    1    100.0    5 
22/05/19  13:50   18.5   18.5   18.4    62   11.1   2.0     S   0.17   4.0     S   18.5   18.2   18.2  1019.5  0.00  0.00   0.000   0.001   26.9    39   11.8   26.3   7.44  .0729    117    1    100.0    5 
22/05/19  13:55   18.5   18.6   18.5    60   10.6   2.0     S   0.17   4.0     S   18.5   18.1   18.1  1019.6  0.00  0.00   0.000   0.001   27.0    39   11.9   26.4   7.44  .0729    117    1    100.0    5 
22/05/19  14:00   18.6   18.6   18.5    62   11.2   2.0     S   0.17   4.0     S   18.6   18.3   18.3  1019.5  0.00  0.00   0.000   0.001   27.1    39   11.9   26.4   7.44  .0729    117    1    100.0    5 
22/05/19  14:05   18.7   18.7   18.6    61   11.0   2.0     S   0.17   4.0     S   18.7   18.3   18.3  1019.4  0.00  0.00   0.000   0.001   27.1    39   12.0   26.5   7.43  .0729    115    1    100.0    5 
22/05/19  14:10   18.7   18.7   18.7    61   11.0   2.0     S   0.17   4.0     S   18.7   18.3   18.3  1019.5  0.00  0.00   0.000   0.001   27.2    39   12.0   26.6   7.43  .0728    117    1    100.0    5 
22/05/19  14:15   18.5   18.7   18.5    61   10.8   2.0     S   0.17   4.0     S   18.5   18.1   18.1  1019.4  0.00  0.00   0.000   0.001   27.2    39   12.1   26.6   7.43  .0728    117    1    100.0    5 
22/05/19  14:20   18.5   18.6   18.5    62   11.1   2.0     S   0.17   4.0     S   18.5   18.2   18.2  1019.4  0.00  0.00   0.000   0.001   27.2    39   12.1   26.6   7.43  .0728    117    1    100.0    5 
22/05/19  14:25   18.4   18.6   18.4    63   11.3   2.0     S   0.17   4.0     S   18.4   18.2   18.2  1019.3  0.00  0.00   0.000   0.000   27.3    39   12.1   26.7   7.43  .0728    117    1    100.0    5 
22/05/19  14:30   18.3   18.4   18.3    62   10.9   3.0     S   0.25   5.0     S   18.3   18.0   18.0  1019.4  0.00  0.00   0.000   0.000   27.3    39   12.1   26.7   7.43  .0728    117    1    100.0    5 
22/05/19  14:35   18.1   18.3   18.1    63   10.9   3.0     S   0.25   5.0     S   18.1   17.7   17.7  1019.3  0.00  0.00   0.001   0.000   27.3    39   12.1   26.7   7.43  .0728    116    1    100.0    5 
22/05/19  14:40   17.8   18.1   17.8    64   10.9   3.0     S   0.25   5.0     S   17.8   17.5   17.5  1019.3  0.00  0.00   0.002   0.000   27.3    39   12.2   26.8   7.43  .0728    117    1    100.0    5 
22/05/19  14:45   17.6   17.8   17.6    65   11.0   2.0     S   0.17   4.0     S   17.6   17.3   17.3  1019.3  0.00  0.00   0.003   0.000   27.3    39   12.2   26.8   7.43  .0728    117    1    100.0    5 
22/05/19  14:50   17.6   17.6   17.6    67   11.4   3.0     S   0.25   4.0     S   17.6   17.4   17.4  1019.2  0.00  0.00   0.003   0.000   27.4    39   12.2   26.8   7.42  .0728    117    1    100.0    5 
22/05/19  14:55   17.6   17.7   17.6    66   11.1   4.0     S   0.33   5.0     S   17.6   17.3   17.3  1019.2  0.00  0.00   0.003   0.000   27.4    39   12.2   26.8   7.42  .0728    116    1    100.0    5 
22/05/19  15:00   17.3   17.6   17.3    66   10.9   5.0     S   0.42   6.0     S   17.3   17.0   17.0  1019.2  0.00  0.00   0.004   0.000   27.4    40   12.6   26.9   7.55  .0727    117    1    100.0    5 
22/05/19  15:05   17.0   17.3   17.0    67   10.8   4.0     S   0.33   6.0     S   17.0   16.7   16.7  1019.1  0.00  0.00   0.005   0.000   27.4    39   12.3   26.9   7.42  .0727    117    1    100.0    5 
22/05/19  15:10   17.0   17.0   17.0    68   11.0   4.0     S   0.33   5.0     S   17.0   16.7   16.7  1019.1  0.00  0.00   0.005   0.000   27.5    40   12.7   27.1   7.55  .0727    117    1    100.0    5 
22/05/19  15:15   17.0   17.0   16.9    68   11.0   4.0     S   0.33   5.0     S   17.0   16.7   16.7  1019.1  0.00  0.00   0.005   0.000   27.5    40   12.7   27.1   7.55  .0727    116    1    100.0    5 
22/05/19  15:20   17.1   17.1   17.1    68   11.1   4.0     S   0.33   6.0     S   17.1   16.8   16.8  1019.0  0.00  0.00   0.004   0.000   27.6    40   12.7   27.1   7.55  .0727    117    1    100.0    5 
22/05/19  15:25   16.9   17.1   16.9    69   11.2   3.0     S   0.25   6.0     S   16.9   16.7   16.7  1019.0  0.00  0.00   0.005   0.000   27.6    40   12.8   27.2   7.55  .0727    118    1    100.0    5 
22/05/19  15:30   16.8   16.9   16.8    69   11.1   4.0     S   0.33   5.0     S   16.8   16.6   16.6  1019.0  0.00  0.00   0.005   0.000   27.7    39   12.5   27.2   7.41  .0727    116    1    100.0    5 
22/05/19  15:35   16.8   16.8   16.8    70   11.3   3.0     S   0.25   5.0     S   16.8   16.6   16.6  1018.9  0.00  0.00   0.005   0.000   27.7    39   12.5   27.2   7.41  .0727    117    1    100.0    5 
22/05/19  15:40   16.9   16.9   16.8    70   11.4   1.0     S   0.08   3.0     S   16.9   16.7   16.7  1019.0  0.00  0.00   0.005   0.000   27.7    39   12.5   27.3   7.41  .0726    116    1    100.0    5 
22/05/19  15:45   17.1   17.1   17.0    70   11.6   3.0     S   0.25   4.0     S   17.1   16.9   16.9  1018.9  0.00  0.00   0.004   0.000   27.8    40   12.9   27.4   7.55  .0726    117    1    100.0    5 
22/05/19  15:50   17.0   17.1   17.0    69   11.3   3.0     S   0.25   4.0     S   17.0   16.8   16.8  1019.0  0.00  0.00   0.005   0.000   27.8    40   13.0   27.4   7.55  .0726    117    1    100.0    5 
22/05/19  15:55   17.0   17.1   17.0    70   11.5   4.0     S   0.33   6.0     S   17.0   16.8   16.8  1018.9  0.00  0.00   0.005   0.000   27.9    40   13.0   27.6   7.55  .0726    116    1    100.0    5 
22/05/19  16:00   16.8   16.9   16.8    70   11.3   4.0     S   0.33   6.0     S   16.8   16.5   16.5  1018.8  0.00  0.00   0.005   0.000   27.9    40   13.1   27.6   7.55  .0725    117    1    100.0    5 
22/05/19  16:05   16.7   16.8   16.7    71   11.4   4.0     S   0.33   6.0     S   16.7   16.5   16.5  1018.8  0.00  0.00   0.006   0.000   28.0    40   13.1   27.7   7.55  .0725    117    1    100.0    5 
22/05/19  16:10   16.7   16.7   16.7    71   11.4   4.0     S   0.33   6.0     S   16.7   16.4   16.4  1018.8  0.00  0.00   0.006   0.000   28.1    40   13.2   27.8   7.55  .0725    117    1    100.0    5 
22/05/19  16:15   16.7   16.7   16.7    71   11.4   4.0     S   0.33   6.0     S   16.7   16.4   16.4  1018.8  0.00  0.00   0.006   0.000   28.1    40   13.2   27.8   7.55  .0725    117    1    100.0    5 
22/05/19  16:20   16.7   16.7   16.6    71   11.4   3.0     S   0.25   5.0     S   16.7   16.4   16.4  1018.8  0.00  0.00   0.006   0.000   28.1    40   13.2   27.8   7.55  .0725    117    1    100.0    5 
22/05/19  16:25   16.6   16.7   16.6    71   11.3   3.0     S   0.25   5.0     S   16.6   16.4   16.4  1018.7  0.00  0.00   0.006   0.000   28.2    40   13.3   27.9   7.55  .0725    118    1    100.0    5 
22/05/19  16:30   16.6   16.6   16.6    72   11.5   3.0     S   0.25   5.0     S   16.6   16.3   16.3  1018.6  0.00  0.00   0.006   0.000   28.2    40   13.3   28.0   7.55  .0724    117    1    100.0    5 
22/05/19  16:35   16.4   16.5   16.4    73   11.6   4.0     S   0.33   6.0     S   16.4   16.2   16.2  1018.6  0.00  0.00   0.007   0.000   28.2    40   13.3   28.0   7.55  .0724    115    1    100.0    5 
22/05/19  16:40   16.3   16.4   16.3    73   11.4   5.0     S   0.42   6.0     S   16.3   16.1   16.1  1018.6  0.00  0.00   0.007   0.000   28.3    39   13.0   28.0   7.39  .0724    117    1    100.0    5 
22/05/19  16:45   16.2   16.3   16.2    73   11.3   5.0     S   0.42   7.0     S   16.2   15.9   15.9  1018.7  0.00  0.00   0.008   0.000   28.3    39   13.0   28.1   7.39  .0724    117    1    100.0    5 
22/05/19  16:50   16.1   16.1   16.1    74   11.4   4.0     S   0.33   6.0     S   16.1   15.8   15.8  1018.6  0.00  0.00   0.008   0.000   28.3    39   13.0   28.1   7.39  .0724    117    1    100.0    5 
22/05/19  16:55   16.0   16.1   16.0    74   11.4   4.0     S   0.33   6.0   SSW   16.0   15.8   15.8  1018.5  0.00  0.00   0.008   0.000   28.4    39   13.1   28.2   7.39  .0724    116    1    100.0    5 
22/05/19  17:00   16.0   16.0   16.0    74   11.4   4.0   SSW   0.33   6.0   SSW   16.0   15.8   15.8  1018.5  0.00  0.00   0.008   0.000   28.4    39   13.1   28.2   7.39  .0724    117    1    100.0    5 
22/05/19  17:05   15.9   16.0   15.9    75   11.5   4.0   SSW   0.33   5.0   SSW   15.9   15.8   15.8  1018.5  0.00  0.00   0.008   0.000   28.4    39   13.1   28.2   7.39  .0724    117    1    100.0    5 
22/05/19  17:10   15.9   15.9   15.9    75   11.5   4.0     S   0.33   5.0   SSW   15.9   15.7   15.7  1018.5  0.00  0.00   0.008   0.000   28.5    39   13.2   28.3   7.38  .0724    117    1    100.0    5 
22/05/19  17:15   15.8   15.9   15.8    75   11.4   4.0     S   0.33   5.0     S   15.8   15.7   15.7  1018.5  0.00  0.00   0.009   0.000   28.5    39   13.2   28.3   7.38  .0724    117    1    100.0    5 
22/05/19  17:20   15.8   15.8   15.8    75   11.4   3.0     S   0.25   5.0     S   15.8   15.7   15.7  1018.4  0.00  0.00   0.009   0.000   28.6    39   13.2   28.4   7.38  .0724    117    1    100.0    5 
22/05/19  17:25   15.8   15.8   15.8    76   11.6   3.0     S   0.25   5.0     S   15.8   15.6   15.6  1018.5  0.00  0.00   0.009   0.000   28.6    39   13.2   28.4   7.38  .0724    116    1    100.0    5 
22/05/19  17:30   15.6   15.8   15.6    76   11.4   2.0     S   0.17   4.0     S   15.6   15.4   15.4  1018.4  0.00  0.00   0.009   0.000   28.6    39   13.2   28.4   7.38  .0724    116    1    100.0    5 
22/05/19  17:35   15.6   15.6   15.6    76   11.3   2.0     S   0.17   5.0     S   15.6   15.4   15.4  1018.4  0.00  0.00   0.010   0.000   28.6    39   13.3   28.5   7.38  .0723    117    1    100.0    5 
22/05/19  17:40   15.5   15.6   15.5    76   11.3   1.0     S   0.08   3.0     S   15.5   15.3   15.3  1018.3  0.00  0.00   0.010   0.000   28.6    39   13.3   28.5   7.38  .0723    117    1    100.0    5 
22/05/19  17:45   15.4   15.4   15.4    76   11.2   1.0     S   0.08   3.0     S   15.4   15.2   15.2  1018.3  0.00  0.00   0.010   0.000   28.6    39   13.3   28.5   7.38  .0723    115    1    100.0    5 
22/05/19  17:50   15.3   15.4   15.3    76   11.1   1.0     S   0.08   3.0     S   15.3   15.1   15.1  1018.3  0.00  0.00   0.011   0.000   28.6    39   13.3   28.5   7.38  .0723    117    1    100.0    5 
22/05/19  17:55   15.2   15.3   15.2    77   11.2   1.0     S   0.08   4.0     S   15.2   14.9   14.9  1018.4  0.00  0.00   0.011   0.000   28.7    39   13.3   28.6   7.38  .0723    117    1    100.0    5 
22/05/19  18:00   15.0   15.2   15.0    77   11.0   1.0     S   0.08   3.0     S   15.0   14.8   14.8  1018.3  0.00  0.00   0.012   0.000   28.7    39   13.4   28.7   7.38  .0723    115    1    100.0    5 
22/05/19  18:05   14.9   15.1   14.9    77   10.9   1.0     S   0.08   3.0     S   14.9   14.7   14.7  1018.2  0.00  0.00   0.012   0.000   28.7    39   13.4   28.7   7.38  .0723    115    1    100.0    5 
22/05/19  18:10   14.7   14.9   14.7    77   10.7   0.0     S   0.00   1.0     S   14.7   14.5   14.5  1018.2  0.00  0.00   0.013   0.000   28.7    39   13.4   28.7   7.38  .0723    117    1    100.0    5 
22/05/19  18:15   14.7   14.7   14.7    78   10.9   0.0     S   0.00   1.0     S   14.7   14.5   14.5  1018.2  0.00  0.00   0.013   0.000   28.7    39   13.4   28.7   7.38  .0723    117    1    100.0    5 
22/05/19  18:20   14.6   14.7   14.6    78   10.8   0.0   ---   0.00   0.0   ---   14.6   14.4   14.4  1018.2  0.00  0.00   0.013   0.000   28.7    39   13.4   28.7   7.38  .0723    117    1    100.0    5 
22/05/19  18:25   14.5   14.6   14.5    78   10.7   0.0     S   0.00   3.0     S   14.5   14.3   14.3  1018.2  0.00  0.00   0.013   0.000   28.7    39   13.4   28.7   7.38  .0723    117    1    100.0    5 
22/05/19  18:30   14.4   14.5   14.4    79   10.8   0.0     S   0.00   1.0     S   14.4   14.3   14.3  1018.2  0.00  0.00   0.014   0.000   28.7    39   13.4   28.7   7.38  .0723    118    1    100.0    5 
22/05/19  18:35   14.3   14.4   14.3    79   10.7   0.0     S   0.00   1.0     S   14.3   14.2   14.2  1018.3  0.00  0.00   0.014   0.000   28.8    39   13.4   28.8   7.37  .0723    116    1    100.0    5 
22/05/19  18:40   14.2   14.3   14.2    79   10.6   0.0     S   0.00   3.0     S   14.2   14.0   14.0  1018.2  0.00  0.00   0.014   0.000   28.7    39   13.4   28.7   7.38  .0723    117    1    100.0    5 
22/05/19  18:45   14.1   14.2   14.1    80   10.7   0.0     S   0.00   3.0     S   14.1   13.9   13.9  1018.2  0.00  0.00   0.015   0.000   28.8    39   13.4   28.8   7.37  .0723    117    1    100.0    5 
22/05/19  18:50   13.9   14.1   13.9    80   10.5   0.0     S   0.00   3.0     S   13.9   13.8   13.8  1018.2  0.00  0.00   0.015   0.000   28.7    39   13.4   28.7   7.38  .0723    115    1    100.0    5 
22/05/19  18:55   13.8   13.9   13.8    80   10.4   0.0   ---   0.00   0.0   ---   13.8   13.7   13.7  1018.2  0.00  0.00   0.016   0.000   28.7    39   13.4   28.7   7.38  .0723    116    1    100.0    5 
22/05/19  19:00   13.8   13.8   13.8    80   10.4   0.0   ---   0.00   0.0   ---   13.8   13.6   13.6  1018.3  0.00  0.00   0.016   0.000   28.7    39   13.4   28.7   7.38  .0723    117    1    100.0    5 
22/05/19  19:05   13.7   13.8   13.7    81   10.5   0.0   ---   0.00   0.0   ---   13.7   13.5   13.5  1018.2  0.00  0.00   0.016   0.000   28.7    39   13.4   28.7   7.38  .0723    117    1    100.0    5 
22/05/19  19:10   13.6   13.7   13.6    81   10.4   0.0   ---   0.00   0.0   ---   13.6   13.4   13.4  1018.1  0.00  0.00   0.016   0.000   28.7    39   13.4   28.7   7.38  .0723    117    1    100.0    5 
22/05/19  19:15   13.6   13.6   13.6    81   10.4   0.0   ---   0.00   0.0   ---   13.6   13.4   13.4  1018.1  0.00  0.00   0.017   0.000   28.7    39   13.4   28.7   7.38  .0723    117    1    100.0    5 
22/05/19  19:20   13.5   13.6   13.5    82   10.5   0.0   ---   0.00   0.0   ---   13.5   13.4   13.4  1018.2  0.00  0.00   0.017   0.000   28.7    39   13.4   28.7   7.38  .0723    117    1    100.0    5 
22/05/19  19:25   13.4   13.5   13.4    82   10.4   0.0   ---   0.00   0.0   ---   13.4   13.3   13.3  1018.2  0.00  0.00   0.017   0.000   28.7    39   13.4   28.7   7.38  .0723    116    1    100.0    5 
22/05/19  19:30   13.4   13.4   13.4    82   10.4   0.0   ---   0.00   0.0   ---   13.4   13.3   13.3  1018.1  0.00  0.00   0.017   0.000   28.7    39   13.4   28.7   7.38  .0723    116    1    100.0    5 
22/05/19  19:35   13.3   13.4   13.3    82   10.3   0.0   ---   0.00   0.0   ---   13.3   13.2   13.2  1018.2  0.00  0.00   0.017   0.000   28.7    39   13.3   28.6   7.38  .0723    118    1    100.0    5 
22/05/19  19:40   13.3   13.3   13.3    82   10.3   0.0   ---   0.00   0.0   ---   13.3   13.2   13.2  1018.2  0.00  0.00   0.017   0.000   28.7    39   13.3   28.6   7.38  .0723    117    1    100.0    5 
22/05/19  19:45   13.3   13.3   13.3    83   10.5   0.0   ---   0.00   0.0   ---   13.3   13.2   13.2  1018.2  0.00  0.00   0.018   0.000   28.7    39   13.3   28.6   7.38  .0723    117    1    100.0    5 
22/05/19  19:50   13.2   13.3   13.2    83   10.4   0.0   ---   0.00   0.0   ---   13.2   13.1   13.1  1018.3  0.00  0.00   0.018   0.000   28.6    39   13.3   28.5   7.38  .0723    116    1    100.0    5 
22/05/19  19:55   13.1   13.2   13.1    83   10.3   0.0   ---   0.00   0.0   ---   13.1   13.0   13.0  1018.2  0.00  0.00   0.018   0.000   28.6    39   13.3   28.5   7.38  .0723    117    1    100.0    5 
22/05/19  20:00   13.1   13.1   13.1    83   10.2   0.0   ---   0.00   0.0   ---   13.1   12.9   12.9  1018.2  0.00  0.00   0.018   0.000   28.6    39   13.3   28.5   7.38  .0723    117    1    100.0    5 
22/05/19  20:05   12.9   13.1   12.9    83   10.1   0.0   ---   0.00   0.0   ---   12.9   12.8   12.8  1018.3  0.00  0.00   0.019   0.000   28.6    39   13.3   28.5   7.38  .0723    117    1    100.0    5 
22/05/19  20:10   12.9   12.9   12.9    83   10.1   0.0   ---   0.00   0.0   ---   12.9   12.8   12.8  1018.3  0.00  0.00   0.019   0.000   28.6    39   13.3   28.5   7.38  .0723    117    1    100.0    5 
22/05/19  20:15   12.8   12.9   12.8    83   10.0   0.0   ---   0.00   0.0   ---   12.8   12.7   12.7  1018.3  0.00  0.00   0.019   0.000   28.6    39   13.2   28.4   7.38  .0723    117    1    100.0    5 
22/05/19  20:20   12.8   12.8   12.8    83   10.0   0.0   ---   0.00   0.0   ---   12.8   12.7   12.7  1018.3  0.00  0.00   0.019   0.000   28.6    39   13.2   28.4   7.38  .0723    116    1    100.0    5 
22/05/19  20:25   12.8   12.8   12.8    83   10.0   0.0   ---   0.00   0.0   ---   12.8   12.7   12.7  1018.3  0.00  0.00   0.019   0.000   28.5    39   13.2   28.3   7.38  .0724    116    1    100.0    5 
22/05/19  20:30   12.7   12.8   12.7    83    9.9   0.0   ---   0.00   0.0   ---   12.7   12.6   12.6  1018.3  0.00  0.00   0.019   0.000   28.5    39   13.2   28.3   7.38  .0724    114    1    100.0    5 
22/05/19  20:35   12.7   12.7   12.7    83    9.9   0.0   ---   0.00   0.0   ---   12.7   12.6   12.6  1018.3  0.00  0.00   0.019   0.000   28.5    39   13.2   28.3   7.38  .0724    117    1    100.0    5 
22/05/19  20:40   12.7   12.7   12.7    83    9.9   0.0   ---   0.00   0.0   ---   12.7   12.6   12.6  1018.3  0.00  0.00   0.019   0.000   28.5    39   13.2   28.3   7.38  .0724    118    1    100.0    5 
22/05/19  20:45   12.7   12.7   12.7    83    9.9   2.0    SE   0.17   5.0    SE   12.7   12.6   12.6  1018.4  0.00  0.00   0.020   0.000   28.4    39   13.1   28.2   7.39  .0724    116    1    100.0    5 
22/05/19  20:50   12.7   12.7   12.7    83    9.9   2.0   SSE   0.17   5.0   SSE   12.7   12.6   12.6  1018.4  0.00  0.00   0.019   0.000   28.4    39   13.1   28.2   7.39  .0724    116    1    100.0    5 
22/05/19  20:55   12.8   12.8   12.7    84   10.2   1.0   SSE   0.08   4.0   SSE   12.8   12.8   12.8  1018.4  0.00  0.00   0.019   0.000   28.4    39   13.1   28.2   7.39  .0724    117    1    100.0    5 
22/05/19  21:00   12.8   12.8   12.8    84   10.2   1.0     S   0.08   5.0     S   12.8   12.8   12.8  1018.4  0.00  0.00   0.019   0.000   28.4    38   12.7   28.1   7.25  .0724    117    1    100.0    5 
22/05/19  21:05   12.8   12.8   12.8    84   10.2   2.0   SSW   0.17   4.0   SSW   12.8   12.8   12.8  1018.3  0.00  0.00   0.019   0.000   28.4    38   12.7   28.1   7.25  .0724    116    1    100.0    5 
22/05/19  21:10   12.8   12.8   12.8    84   10.1   2.0   SSW   0.17   5.0   SSW   12.8   12.7   12.7  1018.4  0.00  0.00   0.019   0.000   28.4    38   12.7   28.1   7.25  .0724    116    1    100.0    5 
22/05/19  21:15   12.8   12.8   12.8    84   10.1   2.0   SSW   0.17   4.0   SSW   12.8   12.7   12.7  1018.3  0.00  0.00   0.019   0.000   28.3    38   12.7   27.9   7.25  .0724    116    1    100.0    5 
22/05/19  21:20   12.8   12.8   12.8    84   10.1   1.0   SSW   0.08   4.0   SSW   12.8   12.7   12.7  1018.3  0.00  0.00   0.019   0.000   28.3    38   12.7   27.9   7.25  .0724    116    1    100.0    5 
22/05/19  21:25   12.7   12.8   12.7    84   10.0   2.0   SSW   0.17   5.0    SW   12.7   12.6   12.6  1018.3  0.00  0.00   0.020   0.000   28.3    38   12.6   27.9   7.25  .0725    117    1    100.0    5 
22/05/19  21:30   12.6   12.7   12.6    84   10.0   3.0    SW   0.25   6.0    SW   12.6   12.6   12.6  1018.3  0.00  0.00   0.020   0.000   28.3    38   12.6   27.9   7.25  .0725    117    1    100.0    5 
22/05/19  21:35   12.7   12.7   12.6    84   10.1   3.0    SW   0.25   6.0    SW   12.7   12.7   12.7  1018.3  0.00  0.00   0.019   0.000   28.3    38   12.6   27.9   7.25  .0725    116    1    100.0    5 
22/05/19  21:40   12.8   12.8   12.7    83   10.0   4.0    SW   0.33   6.0    SW   12.6   12.7   12.4  1018.3  0.00  0.00   0.019   0.000   28.2    38   12.6   27.8   7.25  .0725    116    1    100.0    5 
22/05/19  21:45   12.9   12.9   12.8    83   10.1   4.0    SW   0.33   6.0    SW   12.7   12.8   12.6  1018.3  0.00  0.00   0.019   0.000   28.2    38   12.6   27.8   7.25  .0725    117    1    100.0    5 
22/05/19  21:50   12.8   12.9   12.8    83   10.0   5.0    SW   0.42   6.0    SW   12.3   12.7   12.2  1018.3  0.00  0.00   0.019   0.000   28.2    38   12.6   27.8   7.25  .0725    116    1    100.0    5 
22/05/19  21:55   12.9   12.9   12.8    83   10.1   4.0    SW   0.33   6.0    SW   12.7   12.8   12.6  1018.3  0.00  0.00   0.019   0.000   28.2    38   12.5   27.8   7.25  .0725    117    1    100.0    5 
22/05/19  22:00   12.9   12.9   12.9    83   10.1   3.0    SW   0.25   5.0    SW   12.9   12.8   12.8  1018.3  0.00  0.00   0.019   0.000   28.2    38   12.5   27.8   7.25  .0725    117    1    100.0    5 
22/05/19  22:05   12.8   12.9   12.8    82    9.8   3.0    SW   0.25   6.0    SW   12.8   12.7   12.7  1018.2  0.00  0.00   0.019   0.000   28.2    38   12.5   27.8   7.25  .0725    115    1    100.0    5 
22/05/19  22:10   12.8   12.8   12.8    82    9.8   3.0    SW   0.25   6.0    SW   12.8   12.7   12.7  1018.2  0.00  0.00   0.019   0.000   28.1    38   12.5   27.7   7.25  .0725    116    1    100.0    5 
22/05/19  22:15   12.8   12.8   12.8    82    9.8   2.0    SW   0.17   5.0    SW   12.8   12.7   12.7  1018.2  0.00  0.00   0.019   0.000   28.1    38   12.5   27.7   7.25  .0725    117    1    100.0    5 
114950